Observation data for Amarillo 9 North Northeast on 12/08/2019      Previous  Date       Current Mesonet Observations  Soil Data  Daily Summary Page  Observations in Plain Language
KAM2 080600Z 19005KT 07/01 A2993 RMK A01 T00680005  RH  064%=      5-min Rain = 0
KAM2 080601Z 19005KT 07/01 A2993 RMK A01 T00670005  RH  065%=      5-min Rain = 0
KAM2 080602Z 19006KT 07/00 A2993 RMK A01 T00660004  RH  065%=      5-min Rain = 0
KAM2 080603Z 20005KT 07/00 A2993 RMK A01 T00650004  RH  065%=      5-min Rain = 0
KAM2 080604Z 19005KT 06/00 A2993 RMK A01 T00630003  RH  066%=      5-min Rain = 0
KAM2 080605Z 19006KT 06/00 A2993 RMK A01 T00620003  RH  066%=      5-min Rain = 0
KAM2 080606Z 19006KT 06/00 A2993 RMK A01 T00610003  RH  067%=      5-min Rain = 0
KAM2 080607Z 20006KT 06/00 A2993 RMK A01 T00590002  RH  067%=      5-min Rain = 0
KAM2 080608Z 19006KT 06/00 A2993 RMK A01 T00570002  RH  068%=      5-min Rain = 0
KAM2 080609Z 19006KT 06/00 A2993 RMK A01 T00560002  RH  068%=      5-min Rain = 0
KAM2 080610Z 19007KT 05/00 A2993 RMK A01 T00540001  RH  069%=      5-min Rain = 0
KAM2 080611Z 19007KT 05/00 A2993 RMK A01 T00530001  RH  069%=      5-min Rain = 0
KAM2 080612Z 19007KT 05/00 A2993 RMK A01 T00510001  RH  070%=      5-min Rain = 0
KAM2 080613Z 20007KT 05/00 A2993 RMK A01 T00500000  RH  070%=      5-min Rain = 0
KAM2 080614Z 20007KT 05/00 A2993 RMK A01 T00490000  RH  071%=      5-min Rain = 0
KAM2 080615Z 20007KT 05/00 A2993 RMK A01 T00480000  RH  071%=      5-min Rain = 0
KAM2 080616Z 20008KT 05/00 A2993 RMK A01 T004700-0  RH  072%=      5-min Rain = 0
KAM2 080617Z 20007KT 05/00 A2993 RMK A01 T004600-0  RH  072%=      5-min Rain = 0
KAM2 080618Z 20007KT 05/00 A2993 RMK A01 T00460000  RH  072%=      5-min Rain = 0
KAM2 080619Z 19007KT 05/00 A2993 RMK A01 T00460000  RH  072%=      5-min Rain = 0
KAM2 080620Z 19008KT 05/00 A2993 RMK A01 T00460000  RH  072%=      5-min Rain = 0
KAM2 080621Z 19008KT 05/00 A2993 RMK A01 T00460000  RH  072%=      5-min Rain = 0
KAM2 080622Z 19007KT 05/00 A2993 RMK A01 T004500-0  RH  072%=      5-min Rain = 0
KAM2 080623Z 18007KT 05/00 A2993 RMK A01 T00460000  RH  072%=      5-min Rain = 0
KAM2 080624Z 18007KT 05/00 A2993 RMK A01 T00450000  RH  072%=      5-min Rain = 0
KAM2 080625Z 18007KT 05/00 A2993 RMK A01 T00450000  RH  073%=      5-min Rain = 0
KAM2 080626Z 18006KT 05/00 A2993 RMK A01 T00450000  RH  073%=      5-min Rain = 0
KAM2 080627Z 18006KT 05/00 A2992 RMK A01 T00450000  RH  073%=      5-min Rain = 0
KAM2 080628Z 18006KT 05/00 A2992 RMK A01 T00450000  RH  073%=      5-min Rain = 0
KAM2 080629Z 18006KT 05/00 A2992 RMK A01 T00450000  RH  073%=      5-min Rain = 0
KAM2 080630Z 18005KT 04/00 A2992 RMK A01 T00440000  RH  073%=      5-min Rain = 0
KAM2 080631Z 18005KT 04/00 A2992 RMK A01 T00440000  RH  073%=      5-min Rain = 0
KAM2 080632Z 18005KT 04/00 A2992 RMK A01 T004400-0  RH  073%=      5-min Rain = 0
KAM2 080633Z 18005KT 04/00 A2992 RMK A01 T00430000  RH  074%=      5-min Rain = 0
KAM2 080634Z 18005KT 04/00 A2992 RMK A01 T004300-0  RH  074%=      5-min Rain = 0
KAM2 080635Z 18005KT 04/00 A2992 RMK A01 T004200-0  RH  074%=      5-min Rain = 0
KAM2 080636Z 18004KT 04/M00 A2992 RMK A01 T00421001  RH  074%=      5-min Rain = 0
KAM2 080637Z 17004KT 04/M00 A2992 RMK A01 T00411001  RH  074%=      5-min Rain = 0
KAM2 080638Z 18004KT 04/00 A2991 RMK A01 T004100-0  RH  074%=      5-min Rain = 0
KAM2 080639Z 18004KT 04/00 A2991 RMK A01 T004100-0  RH  074%=      5-min Rain = 0
KAM2 080640Z 18004KT 04/M00 A2991 RMK A01 T00411001  RH  074%=      5-min Rain = 0
KAM2 080641Z 18005KT 04/M00 A2991 RMK A01 T00411001  RH  074%=      5-min Rain = 0
KAM2 080642Z 18005KT 04/M00 A2991 RMK A01 T00411001  RH  074%=      5-min Rain = 0
KAM2 080643Z 18005KT 04/M00 A2991 RMK A01 T00421001  RH  074%=      5-min Rain = 0
KAM2 080644Z 18005KT 04/M00 A2992 RMK A01 T00411001  RH  074%=      5-min Rain = 0
KAM2 080645Z 18005KT 04/M00 A2992 RMK A01 T00411001  RH  074%=      5-min Rain = 0
KAM2 080646Z 19005KT 04/M00 A2992 RMK A01 T00411001  RH  074%=      5-min Rain = 0
KAM2 080647Z 19005KT 04/M00 A2992 RMK A01 T00421001  RH  074%=      5-min Rain = 0
KAM2 080648Z 19006KT 04/M00 A2992 RMK A01 T00411001  RH  074%=      5-min Rain = 0
KAM2 080649Z 19006KT 04/00 A2992 RMK A01 T004200-0  RH  074%=      5-min Rain = 0
KAM2 080650Z 19006KT 04/M00 A2992 RMK A01 T00411001  RH  074%=      5-min Rain = 0
KAM2 080651Z 19006KT 04/M00 A2992 RMK A01 T00421001  RH  074%=      5-min Rain = 0
KAM2 080652Z 20006KT 04/M00 A2992 RMK A01 T00421001  RH  074%=      5-min Rain = 0
KAM2 080653Z 20006KT 04/00 A2992 RMK A01 T004400-0  RH  073%=      5-min Rain = 0
KAM2 080654Z 20006KT 04/00 A2992 RMK A01 T004400-0  RH  073%=      5-min Rain = 0
KAM2 080655Z 20006KT 05/00 A2992 RMK A01 T00460000  RH  072%=      5-min Rain = 0
KAM2 080656Z 20005KT 05/00 A2992 RMK A01 T00470001  RH  072%=      5-min Rain = 0
KAM2 080657Z 20005KT 05/00 A2992 RMK A01 T00490001  RH  071%=      5-min Rain = 0
KAM2 080658Z 19005KT 05/00 A2992 RMK A01 T00490001  RH  071%=      5-min Rain = 0
KAM2 080659Z 20005KT 05/00 A2992 RMK A01 T00490001  RH  071%=      5-min Rain = 0
KAM2 080700Z 20005KT 05/00 A2992 RMK A01 T00490001  RH  071%=      5-min Rain = 0
KAM2 080701Z 20006KT 05/00 A2992 RMK A01 T00480000  RH  071%=      5-min Rain = 0
KAM2 080702Z 19006KT 05/00 A2991 RMK A01 T004600-0  RH  072%=      5-min Rain = 0
KAM2 080703Z 19006KT 05/00 A2992 RMK A01 T004500-0  RH  072%=      5-min Rain = 0
KAM2 080704Z 20005KT 04/00 A2992 RMK A01 T004400-0  RH  073%=      5-min Rain = 0
KAM2 080705Z 20005KT 04/00 A2992 RMK A01 T004400-0  RH  073%=      5-min Rain = 0
KAM2 080706Z 19005KT 04/M00 A2992 RMK A01 T00441001  RH  073%=      5-min Rain = 0
KAM2 080707Z 20005KT 04/M00 A2992 RMK A01 T00441001  RH  073%=      5-min Rain = 0
KAM2 080708Z 20004KT 04/M00 A2992 RMK A01 T00431001  RH  073%=      5-min Rain = 0
KAM2 080709Z 20004KT 04/M00 A2992 RMK A01 T00421002  RH  073%=      5-min Rain = 0
KAM2 080710Z 21003KT 04/M00 A2992 RMK A01 T00411002  RH  073%=      5-min Rain = 0
KAM2 080711Z 21003KT 04/M00 A2992 RMK A01 T00411003  RH  073%=      5-min Rain = 0
KAM2 080712Z 21002KT 04/M00 A2992 RMK A01 T00391002  RH  074%=      5-min Rain = 0
KAM2 080713Z 20001KT 04/M00 A2992 RMK A01 T00381003  RH  075%=      5-min Rain = 0
KAM2 080714Z 18000KT 04/M00 A2992 RMK A01 T00371003  RH  075%=      5-min Rain = 0
KAM2 080715Z 13001KT 04/M00 A2991 RMK A01 T00371002  RH  076%=      5-min Rain = 0
KAM2 080716Z 16001KT 04/M00 A2991 RMK A01 T00371001  RH  076%=      5-min Rain = 0
KAM2 080717Z 17001KT 04/00 A2992 RMK A01 T00380000  RH  076%=      5-min Rain = 0
KAM2 080718Z 16002KT 04/00 A2992 RMK A01 T00400001  RH  075%=      5-min Rain = 0
KAM2 080719Z 16003KT 04/00 A2991 RMK A01 T00420001  RH  075%=      5-min Rain = 0
KAM2 080720Z 16003KT 04/00 A2991 RMK A01 T00430001  RH  074%=      5-min Rain = 0
KAM2 080721Z 17004KT 04/00 A2991 RMK A01 T004400-0  RH  073%=      5-min Rain = 0
KAM2 080722Z 17004KT 04/M01 A2991 RMK A01 T00411005  RH  072%=      5-min Rain = 0
KAM2 080723Z 18003KT 04/M01 A2991 RMK A01 T00371006  RH  073%=      5-min Rain = 0
KAM2 080724Z 18003KT 04/M01 A2991 RMK A01 T00361005  RH  075%=      5-min Rain = 0
KAM2 080725Z 19003KT 03/M01 A2991 RMK A01 T00341006  RH  075%=      5-min Rain = 0
KAM2 080726Z 19003KT 03/M01 A2991 RMK A01 T00321006  RH  076%=      5-min Rain = 0
KAM2 080727Z 19003KT 03/M01 A2991 RMK A01 T00321005  RH  077%=      5-min Rain = 0
KAM2 080728Z 19003KT 03/M00 A2991 RMK A01 T00311004  RH  077%=      5-min Rain = 0
KAM2 080729Z 19003KT 03/M00 A2991 RMK A01 T00311004  RH  078%=      5-min Rain = 0
KAM2 080730Z 19002KT 03/M00 A2991 RMK A01 T00311004  RH  078%=      5-min Rain = 0
KAM2 080731Z 19002KT 03/M00 A2991 RMK A01 T00311004  RH  078%=      5-min Rain = 0
KAM2 080732Z 19003KT 03/M00 A2991 RMK A01 T00311004  RH  078%=      5-min Rain = 0
KAM2 080733Z 19003KT 03/M00 A2991 RMK A01 T00321004  RH  077%=      5-min Rain = 0
KAM2 080734Z 18004KT 03/M01 A2991 RMK A01 T00331005  RH  076%=      5-min Rain = 0
KAM2 080735Z 18003KT 03/M01 A2991 RMK A01 T00321006  RH  076%=      5-min Rain = 0
KAM2 080736Z 18004KT 03/M01 A2991 RMK A01 T00301007  RH  077%=      5-min Rain = 0
KAM2 080737Z 18004KT 03/M01 A2991 RMK A01 T00291007  RH  077%=      5-min Rain = 0
KAM2 080738Z 19004KT 03/M01 A2991 RMK A01 T00281007  RH  078%=      5-min Rain = 0
KAM2 080739Z 20003KT 03/M01 A2991 RMK A01 T00281008  RH  078%=      5-min Rain = 0
KAM2 080740Z 19004KT 03/M01 A2991 RMK A01 T00271008  RH  078%=      5-min Rain = 0
KAM2 080741Z 19004KT 03/M01 A2991 RMK A01 T00261008  RH  079%=      5-min Rain = 0
KAM2 080742Z 19004KT 03/M01 A2991 RMK A01 T00261007  RH  079%=      5-min Rain = 0
KAM2 080743Z 19004KT 03/M01 A299 RMK A01 T00261007  RH  079%=      5-min Rain = 0
KAM2 080744Z 20004KT 03/M01 A299 RMK A01 T00261008  RH  078%=      5-min Rain = 0
KAM2 080745Z 20003KT 03/M01 A299 RMK A01 T00261008  RH  078%=      5-min Rain = 0
KAM2 080746Z 19003KT 03/M01 A299 RMK A01 T00261008  RH  078%=      5-min Rain = 0
KAM2 080747Z 19003KT 03/M01 A299 RMK A01 T00261007  RH  078%=      5-min Rain = 0
KAM2 080748Z 19002KT 03/M01 A299 RMK A01 T00271006  RH  079%=      5-min Rain = 0
KAM2 080749Z 18002KT 03/M01 A299 RMK A01 T00291006  RH  078%=      5-min Rain = 0
KAM2 080750Z 18003KT 03/M01 A299 RMK A01 T00301005  RH  078%=      5-min Rain = 0
KAM2 080751Z 17003KT 03/M01 A299 RMK A01 T00321005  RH  077%=      5-min Rain = 0
KAM2 080752Z 18003KT 03/M01 A299 RMK A01 T00341005  RH  076%=      5-min Rain = 0
KAM2 080753Z 18002KT 03/M01 A299 RMK A01 T00341006  RH  075%=      5-min Rain = 0
KAM2 080754Z 17002KT 03/M01 A299 RMK A01 T00341006  RH  075%=      5-min Rain = 0
KAM2 080755Z 18002KT 04/M01 A299 RMK A01 T00351005  RH  075%=      5-min Rain = 0
KAM2 080756Z 18002KT 04/M01 A299 RMK A01 T00351005  RH  075%=      5-min Rain = 0
KAM2 080757Z 19002KT 04/M01 A299 RMK A01 T00351006  RH  075%=      5-min Rain = 0
KAM2 080758Z 19001KT 04/M01 A299 RMK A01 T00351006  RH  075%=      5-min Rain = 0
KAM2 080759Z 14001KT 03/M01 A299 RMK A01 T00341006  RH  075%=      5-min Rain = 0
KAM2 080800Z 12000KT 03/M01 A299 RMK A01 T00311009  RH  075%=      5-min Rain = 0
KAM2 080801Z 00000KT 03/M01 A299 RMK A01 T00301007  RH  077%=      5-min Rain = 0
KAM2 080802Z 19000KT 03/M01 A299 RMK A01 T00301006  RH  077%=      5-min Rain = 0
KAM2 080803Z 19001KT 03/M00 A299 RMK A01 T00321004  RH  077%=      5-min Rain = 0
KAM2 080804Z 19001KT 03/M00 A299 RMK A01 T00331004  RH  076%=      5-min Rain = 0
KAM2 080805Z 20001KT 03/M01 A299 RMK A01 T00331006  RH  076%=      5-min Rain = 0
KAM2 080806Z 20001KT 03/M01 A2991 RMK A01 T00331005  RH  076%=      5-min Rain = 0
KAM2 080807Z 20001KT 03/M01 A2991 RMK A01 T00331005  RH  076%=      5-min Rain = 0
KAM2 080808Z 19000KT 03/M01 A2991 RMK A01 T00341006  RH  075%=      5-min Rain = 0
KAM2 080809Z 18001KT 03/M01 A2991 RMK A01 T00341006  RH  075%=      5-min Rain = 0
KAM2 080810Z 18001KT 03/M01 A2991 RMK A01 T00331006  RH  075%=      5-min Rain = 0
KAM2 080811Z 18001KT 03/M01 A2991 RMK A01 T00331006  RH  076%=      5-min Rain = 0
KAM2 080812Z 17002KT 03/M01 A2991 RMK A01 T00321007  RH  076%=      5-min Rain = 0
KAM2 080813Z 16002KT 03/M01 A2991 RMK A01 T00311008  RH  076%=      5-min Rain = 0
KAM2 080814Z 17003KT 03/M01 A2991 RMK A01 T00301008  RH  076%=      5-min Rain = 0
KAM2 080815Z 17003KT 03/M01 A2991 RMK A01 T00291008  RH  076%=      5-min Rain = 0
KAM2 080816Z 16004KT 03/M01 A2991 RMK A01 T00281008  RH  077%=      5-min Rain = 0
KAM2 080817Z 17004KT 03/M01 A2991 RMK A01 T00291008  RH  077%=      5-min Rain = 0
KAM2 080818Z 16004KT 03/M01 A2991 RMK A01 T00291008  RH  077%=      5-min Rain = 0
KAM2 080819Z 16004KT 03/M01 A2991 RMK A01 T00291008  RH  077%=      5-min Rain = 0
KAM2 080820Z 17005KT 03/M01 A2991 RMK A01 T00291007  RH  077%=      5-min Rain = 0
KAM2 080821Z 17005KT 03/M01 A2991 RMK A01 T00301006  RH  077%=      5-min Rain = 0
KAM2 080822Z 17005KT 03/M01 A2991 RMK A01 T00301006  RH  077%=      5-min Rain = 0
KAM2 080823Z 17004KT 03/M01 A2991 RMK A01 T00301006  RH  077%=      5-min Rain = 0
KAM2 080824Z 18005KT 03/M01 A2991 RMK A01 T00311006  RH  077%=      5-min Rain = 0
KAM2 080825Z 18006KT 03/M01 A2991 RMK A01 T00301006  RH  077%=      5-min Rain = 0
KAM2 080826Z 19005KT 03/M01 A2991 RMK A01 T00301005  RH  078%=      5-min Rain = 0
KAM2 080827Z 19005KT 03/M01 A2991 RMK A01 T00311005  RH  077%=      5-min Rain = 0
KAM2 080828Z 19005KT 03/M00 A2991 RMK A01 T00321004  RH  077%=      5-min Rain = 0
KAM2 080829Z 19005KT 03/M00 A2991 RMK A01 T00321004  RH  077%=      5-min Rain = 0
KAM2 080830Z 19005KT 03/M00 A2991 RMK A01 T00331004  RH  077%=      5-min Rain = 0
KAM2 080831Z 20005KT 03/M00 A2991 RMK A01 T00341003  RH  077%=      5-min Rain = 0
KAM2 080832Z 19005KT 03/M00 A2991 RMK A01 T00341003  RH  077%=      5-min Rain = 0
KAM2 080833Z 19005KT 04/M00 A2991 RMK A01 T00351002  RH  076%=      5-min Rain = 0
KAM2 080834Z 19005KT 04/M00 A2991 RMK A01 T00371002  RH  076%=      5-min Rain = 0
KAM2 080835Z 19005KT 04/M00 A2991 RMK A01 T00381002  RH  075%=      5-min Rain = 0
KAM2 080836Z 20004KT 04/M00 A2991 RMK A01 T00381002  RH  075%=      5-min Rain = 0
KAM2 080837Z 22004KT 04/M00 A2991 RMK A01 T00381002  RH  075%=      5-min Rain = 0
KAM2 080838Z 22004KT 04/M00 A2991 RMK A01 T00381002  RH  075%=      5-min Rain = 0
KAM2 080839Z 22004KT 04/M00 A2991 RMK A01 T00381002  RH  075%=      5-min Rain = 0
KAM2 080840Z 22005KT 04/M00 A2991 RMK A01 T00381002  RH  075%=      5-min Rain = 0
KAM2 080841Z 23004KT 04/M00 A2991 RMK A01 T00371003  RH  075%=      5-min Rain = 0
KAM2 080842Z 22004KT 04/M00 A2991 RMK A01 T00371003  RH  075%=      5-min Rain = 0
KAM2 080843Z 22003KT 04/M00 A2991 RMK A01 T00371003  RH  075%=      5-min Rain = 0
KAM2 080844Z 22003KT 04/M00 A2991 RMK A01 T00381003  RH  075%=      5-min Rain = 0
KAM2 080845Z 21002KT 04/M00 A2991 RMK A01 T00381003  RH  074%=      5-min Rain = 0
KAM2 080846Z 21002KT 04/M00 A2991 RMK A01 T00391003  RH  074%=      5-min Rain = 0
KAM2 080847Z 23003KT 04/M00 A2991 RMK A01 T00391003  RH  074%=      5-min Rain = 0
KAM2 080848Z 23002KT 04/M00 A2991 RMK A01 T00401004  RH  073%=      5-min Rain = 0
KAM2 080849Z 23003KT 04/M00 A2991 RMK A01 T00411003  RH  073%=      5-min Rain = 0
KAM2 080850Z 23003KT 04/M00 A2991 RMK A01 T00431003  RH  072%=      5-min Rain = 0
KAM2 080851Z 24003KT 04/M00 A2991 RMK A01 T00431003  RH  072%=      5-min Rain = 0
KAM2 080852Z 25003KT 04/M00 A2991 RMK A01 T00431003  RH  072%=      5-min Rain = 0
KAM2 080853Z 25004KT 04/M00 A2991 RMK A01 T00431003  RH  072%=      5-min Rain = 0
KAM2 080854Z 26006KT 04/M00 A2991 RMK A01 T00421003  RH  072%=      5-min Rain = 0
KAM2 080855Z 26006KT 04/M00 A2991 RMK A01 T00441003  RH  072%=      5-min Rain = 0
KAM2 080856Z 25006KT 05/M00 A2991 RMK A01 T00491002  RH  070%=      5-min Rain = 0
KAM2 080857Z 25006KT 06/M00 A2991 RMK A01 T00551002  RH  067%=      5-min Rain = 0
KAM2 080858Z 25006KT 06/M00 A2991 RMK A01 T00621002  RH  064%=      5-min Rain = 0
KAM2 080859Z 25006KT 07/M00 A2991 RMK A01 T00681002  RH  061%=      5-min Rain = 0
KAM2 080900Z 24006KT 07/M00 A2991 RMK A01 T00731002  RH  059%=      5-min Rain = 0
KAM2 080901Z 24005KT 08/M00 A2991 RMK A01 T00751003  RH  058%=      5-min Rain = 0
KAM2 080902Z 24006KT 08/M00 A2991 RMK A01 T00761003  RH  057%=      5-min Rain = 0
KAM2 080903Z 24006KT 08/M00 A2991 RMK A01 T00761003  RH  057%=      5-min Rain = 0
KAM2 080904Z 24006KT 08/M00 A2991 RMK A01 T00761004  RH  057%=      5-min Rain = 0
KAM2 080905Z 25006KT 08/M00 A2991 RMK A01 T00771003  RH  057%=      5-min Rain = 0
KAM2 080906Z 25005KT 08/M00 A2991 RMK A01 T00771004  RH  057%=      5-min Rain = 0
KAM2 080907Z 24005KT 08/M00 A2991 RMK A01 T00771004  RH  057%=      5-min Rain = 0
KAM2 080908Z 25005KT 08/M01 A299 RMK A01 T00771005  RH  056%=      5-min Rain = 0
KAM2 080909Z 25005KT 08/M01 A299 RMK A01 T00771005  RH  056%=      5-min Rain = 0
KAM2 080910Z 26004KT 08/M01 A299 RMK A01 T00771005  RH  056%=      5-min Rain = 0
KAM2 080911Z 26004KT 08/M00 A299 RMK A01 T00781004  RH  056%=      5-min Rain = 0
KAM2 080912Z 25003KT 08/M00 A299 RMK A01 T00781004  RH  056%=      5-min Rain = 0
KAM2 080913Z 26003KT 08/M00 A299 RMK A01 T00761001  RH  058%=      5-min Rain = 0
KAM2 080914Z 27003KT 07/M00 A299 RMK A01 T00711001  RH  060%=      5-min Rain = 0
KAM2 080915Z 27004KT 07/M00 A299 RMK A01 T00661002  RH  062%=      5-min Rain = 0
KAM2 080916Z 26005KT 06/M00 A299 RMK A01 T00641001  RH  063%=      5-min Rain = 0
KAM2 080917Z 26005KT 06/M00 A299 RMK A01 T00621002  RH  063%=      5-min Rain = 0
KAM2 080918Z 26005KT 06/M00 A299 RMK A01 T00621004  RH  063%=      5-min Rain = 0
KAM2 080919Z 26005KT 06/M00 A299 RMK A01 T00621003  RH  063%=      5-min Rain = 0
KAM2 080920Z 26005KT 06/M00 A299 RMK A01 T00621003  RH  063%=      5-min Rain = 0
KAM2 080921Z 26004KT 06/M00 A299 RMK A01 T00621002  RH  063%=      5-min Rain = 0
KAM2 080922Z 27004KT 06/M00 A299 RMK A01 T00621002  RH  063%=      5-min Rain = 0
KAM2 080923Z 26004KT 06/M00 A299 RMK A01 T00621001  RH  064%=      5-min Rain = 0
KAM2 080924Z 25004KT 06/00 A299 RMK A01 T00610001  RH  065%=      5-min Rain = 0
KAM2 080925Z 24003KT 06/00 A2989 RMK A01 T00600001  RH  066%=      5-min Rain = 0
KAM2 080926Z 23003KT 06/00 A2989 RMK A01 T00580002  RH  067%=      5-min Rain = 0
KAM2 080927Z 23003KT 06/00 A299 RMK A01 T00550002  RH  069%=      5-min Rain = 0
KAM2 080928Z 24003KT 05/00 A2989 RMK A01 T00540002  RH  069%=      5-min Rain = 0
KAM2 080929Z 24004KT 05/00 A299 RMK A01 T00520002  RH  070%=      5-min Rain = 0
KAM2 080930Z 25004KT 05/00 A2989 RMK A01 T00510002  RH  071%=      5-min Rain = 0
KAM2 080931Z 26003KT 05/00 A2989 RMK A01 T00500002  RH  071%=      5-min Rain = 0
KAM2 080932Z 25003KT 05/00 A2989 RMK A01 T00500002  RH  071%=      5-min Rain = 0
KAM2 080933Z 24003KT 05/00 A2989 RMK A01 T00500002  RH  071%=      5-min Rain = 0
KAM2 080934Z 22002KT 05/00 A2989 RMK A01 T00500001  RH  071%=      5-min Rain = 0
KAM2 080935Z 21002KT 05/00 A2989 RMK A01 T00500001  RH  071%=      5-min Rain = 0
KAM2 080936Z 20001KT 05/00 A2989 RMK A01 T00500000  RH  070%=      5-min Rain = 0
KAM2 080937Z 21001KT 05/00 A2989 RMK A01 T00500000  RH  070%=      5-min Rain = 0
KAM2 080938Z 21001KT 05/00 A2989 RMK A01 T00510000  RH  070%=      5-min Rain = 0
KAM2 080939Z 21002KT 05/00 A2989 RMK A01 T00520000  RH  069%=      5-min Rain = 0
KAM2 080940Z 20003KT 05/00 A2989 RMK A01 T00530000  RH  069%=      5-min Rain = 0
KAM2 080941Z 19002KT 05/00 A2989 RMK A01 T00540000  RH  068%=      5-min Rain = 0
KAM2 080942Z 18004KT 05/00 A2989 RMK A01 T005400-0  RH  068%=      5-min Rain = 0
KAM2 080943Z 18004KT 05/00 A2989 RMK A01 T00540000  RH  068%=      5-min Rain = 0
KAM2 080944Z 18004KT 05/00 A2989 RMK A01 T00540001  RH  068%=      5-min Rain = 0
KAM2 080945Z 19005KT 05/00 A2988 RMK A01 T00540000  RH  068%=      5-min Rain = 0
KAM2 080946Z 19005KT 05/00 A2988 RMK A01 T00540000  RH  068%=      5-min Rain = 0
KAM2 080947Z 18005KT 05/00 A2988 RMK A01 T00540001  RH  069%=      5-min Rain = 0
KAM2 080948Z 18004KT 05/00 A2988 RMK A01 T00530001  RH  069%=      5-min Rain = 0
KAM2 080949Z 18004KT 05/00 A2988 RMK A01 T00530001  RH  069%=      5-min Rain = 0
KAM2 080950Z 18004KT 05/00 A2988 RMK A01 T00530001  RH  069%=      5-min Rain = 0
KAM2 080951Z 19004KT 05/00 A2988 RMK A01 T00530001  RH  069%=      5-min Rain = 0
KAM2 080952Z 20004KT 05/00 A2988 RMK A01 T00530001  RH  069%=      5-min Rain = 0
KAM2 080953Z 20005KT 05/00 A2988 RMK A01 T00530001  RH  069%=      5-min Rain = 0
KAM2 080954Z 20005KT 05/00 A2989 RMK A01 T00530002  RH  070%=      5-min Rain = 0
KAM2 080955Z 21005KT 05/00 A2989 RMK A01 T00530002  RH  070%=      5-min Rain = 0
KAM2 080956Z 21005KT 05/00 A2989 RMK A01 T00530003  RH  070%=      5-min Rain = 0
KAM2 080957Z 22005KT 05/00 A2989 RMK A01 T00530002  RH  070%=      5-min Rain = 0
KAM2 080958Z 23006KT 05/00 A2989 RMK A01 T00540001  RH  069%=      5-min Rain = 0
KAM2 080959Z 24006KT 06/00 A2989 RMK A01 T00550000  RH  068%=      5-min Rain = 0
KAM2 081000Z 24006KT 06/M00 A2989 RMK A01 T00571001  RH  066%=      5-min Rain = 0
KAM2 081001Z 25006KT 06/M00 A2989 RMK A01 T00611001  RH  064%=      5-min Rain = 0
KAM2 081002Z 25005KT 06/M00 A2988 RMK A01 T00641001  RH  063%=      5-min Rain = 0
KAM2 081003Z 24005KT 07/M00 A2988 RMK A01 T00651001  RH  063%=      5-min Rain = 0
KAM2 081004Z 25005KT 07/M00 A2988 RMK A01 T00651001  RH  062%=      5-min Rain = 0
KAM2 081005Z 24005KT 07/M00 A2988 RMK A01 T00671001  RH  062%=      5-min Rain = 0
KAM2 081006Z 25006KT 07/M00 A2988 RMK A01 T00671002  RH  061%=      5-min Rain = 0
KAM2 081007Z 25006KT 07/M00 A2988 RMK A01 T00691001  RH  061%=      5-min Rain = 0
KAM2 081008Z 25005KT 07/M00 A2988 RMK A01 T00701001  RH  060%=      5-min Rain = 0
KAM2 081009Z 25005KT 07/M00 A2988 RMK A01 T00711002  RH  060%=      5-min Rain = 0
KAM2 081010Z 25005KT 07/M00 A2988 RMK A01 T00741003  RH  058%=      5-min Rain = 0
KAM2 081011Z 25005KT 08/M00 A2988 RMK A01 T00781003  RH  056%=      5-min Rain = 0
KAM2 081012Z 25005KT 08/M00 A2988 RMK A01 T00821003  RH  055%=      5-min Rain = 0
KAM2 081013Z 25004KT 09/M00 A2988 RMK A01 T00851003  RH  054%=      5-min Rain = 0
KAM2 081014Z 25003KT 09/M00 A2988 RMK A01 T00851003  RH  054%=      5-min Rain = 0
KAM2 081015Z 25003KT 09/M00 A2988 RMK A01 T00861004  RH  053%=      5-min Rain = 0
KAM2 081016Z 25002KT 09/M00 A2987 RMK A01 T00861004  RH  053%=      5-min Rain = 0
KAM2 081017Z 24002KT 09/M00 A2987 RMK A01 T00861003  RH  054%=      5-min Rain = 0
KAM2 081018Z 23000KT 08/00 A2987 RMK A01 T008100-0  RH  057%=      5-min Rain = 0
KAM2 081019Z 15001KT 07/00 A2987 RMK A01 T007400-0  RH  059%=      5-min Rain = 0
KAM2 081020Z 14002KT 07/00 A2987 RMK A01 T00710001  RH  061%=      5-min Rain = 0
KAM2 081021Z 15003KT 07/00 A2987 RMK A01 T00690002  RH  062%=      5-min Rain = 0
KAM2 081022Z 17003KT 07/00 A2987 RMK A01 T00680003  RH  063%=      5-min Rain = 0
KAM2 081023Z 17003KT 07/00 A2987 RMK A01 T00670003  RH  064%=      5-min Rain = 0
KAM2 081024Z 15004KT 07/00 A2987 RMK A01 T00650002  RH  064%=      5-min Rain = 0
KAM2 081025Z 16004KT 06/00 A2987 RMK A01 T00630002  RH  065%=      5-min Rain = 0
KAM2 081026Z 16004KT 06/00 A2987 RMK A01 T00630001  RH  065%=      5-min Rain = 0
KAM2 081027Z 16004KT 06/00 A2987 RMK A01 T00620001  RH  065%=      5-min Rain = 0
KAM2 081028Z 15004KT 06/00 A2987 RMK A01 T00620001  RH  065%=      5-min Rain = 0
KAM2 081029Z 15004KT 06/00 A2987 RMK A01 T00620000  RH  065%=      5-min Rain = 0
KAM2 081030Z 15005KT 06/00 A2986 RMK A01 T006300-0  RH  064%=      5-min Rain = 0
KAM2 081031Z 15004KT 06/M00 A2986 RMK A01 T00641001  RH  063%=      5-min Rain = 0
KAM2 081032Z 15005KT 07/00 A2986 RMK A01 T006500-0  RH  063%=      5-min Rain = 0
KAM2 081033Z 14005KT 07/M00 A2986 RMK A01 T00651001  RH  063%=      5-min Rain = 0
KAM2 081034Z 13005KT 07/M00 A2986 RMK A01 T00671001  RH  062%=      5-min Rain = 0
KAM2 081035Z 13004KT 07/00 A2986 RMK A01 T006800-0  RH  062%=      5-min Rain = 0
KAM2 081036Z 14004KT 07/00 A2986 RMK A01 T006900-0  RH  061%=      5-min Rain = 0
KAM2 081037Z 12003KT 07/00 A2986 RMK A01 T007100-0  RH  060%=      5-min Rain = 0
KAM2 081038Z 13003KT 07/00 A2986 RMK A01 T007400-0  RH  059%=      5-min Rain = 0
KAM2 081039Z 14001KT 08/00 A2986 RMK A01 T00750001  RH  059%=      5-min Rain = 0
KAM2 081040Z 13003KT 08/M00 A2986 RMK A01 T00751001  RH  058%=      5-min Rain = 0
KAM2 081041Z 15002KT 08/M00 A2986 RMK A01 T00761002  RH  058%=      5-min Rain = 0
KAM2 081042Z 17002KT 08/M00 A2986 RMK A01 T00771002  RH  057%=      5-min Rain = 0
KAM2 081043Z 15002KT 08/M00 A2986 RMK A01 T00781002  RH  057%=      5-min Rain = 0
KAM2 081044Z 19001KT 08/M00 A2986 RMK A01 T00791003  RH  056%=      5-min Rain = 0
KAM2 081045Z 17002KT 08/M00 A2986 RMK A01 T00791001  RH  057%=      5-min Rain = 0
KAM2 081046Z 16002KT 08/M00 A2986 RMK A01 T00771002  RH  057%=      5-min Rain = 0
KAM2 081047Z 17002KT 08/M00 A2986 RMK A01 T00761001  RH  058%=      5-min Rain = 0
KAM2 081048Z 19002KT 08/M00 A2986 RMK A01 T00751001  RH  058%=      5-min Rain = 0
KAM2 081049Z 19002KT 07/M00 A2986 RMK A01 T00741001  RH  059%=      5-min Rain = 0
KAM2 081050Z 18002KT 07/M00 A2986 RMK A01 T00721002  RH  059%=      5-min Rain = 0
KAM2 081051Z 19002KT 07/M00 A2986 RMK A01 T00711001  RH  060%=      5-min Rain = 0
KAM2 081052Z 18002KT 07/M00 A2986 RMK A01 T00711001  RH  060%=      5-min Rain = 0
KAM2 081053Z 18003KT 07/M00 A2986 RMK A01 T00691001  RH  061%=      5-min Rain = 0
KAM2 081054Z 18003KT 07/00 A2986 RMK A01 T006800-0  RH  061%=      5-min Rain = 0
KAM2 081055Z 18003KT 07/00 A2986 RMK A01 T00680000  RH  062%=      5-min Rain = 0
KAM2 081056Z 18003KT 07/00 A2986 RMK A01 T00660001  RH  063%=      5-min Rain = 0
KAM2 081057Z 19004KT 06/00 A2986 RMK A01 T00640001  RH  064%=      5-min Rain = 0
KAM2 081058Z 19004KT 06/00 A2986 RMK A01 T00630001  RH  065%=      5-min Rain = 0
KAM2 081059Z 19003KT 06/00 A2986 RMK A01 T00620001  RH  065%=      5-min Rain = 0
KAM2 081100Z 19003KT 06/00 A2986 RMK A01 T00610001  RH  065%=      5-min Rain = 0
KAM2 081101Z 19002KT 06/00 A2986 RMK A01 T00610001  RH  065%=      5-min Rain = 0
KAM2 081102Z 19002KT 06/00 A2986 RMK A01 T00610000  RH  065%=      5-min Rain = 0
KAM2 081103Z 19001KT 06/M00 A2986 RMK A01 T00611001  RH  065%=      5-min Rain = 0
KAM2 081104Z 18001KT 06/00 A2986 RMK A01 T006200-0  RH  064%=      5-min Rain = 0
KAM2 081105Z 15001KT 06/00 A2986 RMK A01 T006200-0  RH  064%=      5-min Rain = 0
KAM2 081106Z 10000KT 06/00 A2986 RMK A01 T00620001  RH  065%=      5-min Rain = 0
KAM2 081107Z 07002KT 06/00 A2986 RMK A01 T00610000  RH  065%=      5-min Rain = 0
KAM2 081108Z 07002KT 06/00 A2986 RMK A01 T00610000  RH  065%=      5-min Rain = 0
KAM2 081109Z 05002KT 06/M00 A2986 RMK A01 T00621001  RH  064%=      5-min Rain = 0
KAM2 081110Z 03002KT 06/M00 A2986 RMK A01 T00621001  RH  064%=      5-min Rain = 0
KAM2 081111Z 06001KT 07/M00 A2986 RMK A01 T00651002  RH  062%=      5-min Rain = 0
KAM2 081112Z 03001KT 07/M00 A2986 RMK A01 T00691002  RH  060%=      5-min Rain = 0
KAM2 081113Z 04001KT 07/M00 A2986 RMK A01 T00731002  RH  059%=      5-min Rain = 0
KAM2 081114Z 06002KT 07/M00 A2986 RMK A01 T00741002  RH  058%=      5-min Rain = 0
KAM2 081115Z 07002KT 08/M00 A2986 RMK A01 T00751002  RH  058%=      5-min Rain = 0
KAM2 081116Z 02002KT 08/M00 A2986 RMK A01 T00751003  RH  058%=      5-min Rain = 0
KAM2 081117Z 08001KT 08/M00 A2986 RMK A01 T00771003  RH  057%=      5-min Rain = 0
KAM2 081118Z 05001KT 08/M00 A2986 RMK A01 T00801003  RH  056%=      5-min Rain = 0
KAM2 081119Z 05001KT 08/M00 A2986 RMK A01 T00781004  RH  056%=      5-min Rain = 0
KAM2 081120Z 03002KT 08/M00 A2985 RMK A01 T00771004  RH  057%=      5-min Rain = 0
KAM2 081121Z 05003KT 08/M00 A2985 RMK A01 T00761004  RH  057%=      5-min Rain = 0
KAM2 081122Z 06003KT 08/M00 A2985 RMK A01 T00761004  RH  057%=      5-min Rain = 0
KAM2 081123Z 03002KT 08/M00 A2985 RMK A01 T00761003  RH  057%=      5-min Rain = 0
KAM2 081124Z 03002KT 08/M00 A2985 RMK A01 T00761004  RH  057%=      5-min Rain = 0
KAM2 081125Z 05002KT 08/M00 A2986 RMK A01 T00761004  RH  057%=      5-min Rain = 0
KAM2 081126Z 05002KT 08/M00 A2986 RMK A01 T00771004  RH  057%=      5-min Rain = 0
KAM2 081127Z 03001KT 08/M00 A2986 RMK A01 T00771003  RH  057%=      5-min Rain = 0
KAM2 081128Z 04000KT 08/M00 A2986 RMK A01 T00771003  RH  057%=      5-min Rain = 0
KAM2 081129Z 05001KT 08/M00 A2986 RMK A01 T00761003  RH  057%=      5-min Rain = 0
KAM2 081130Z 05001KT 08/M00 A2986 RMK A01 T00761003  RH  057%=      5-min Rain = 0
KAM2 081131Z 05000KT 08/M00 A2986 RMK A01 T00761003  RH  057%=      5-min Rain = 0
KAM2 081132Z 07001KT 07/M00 A2986 RMK A01 T00741003  RH  058%=      5-min Rain = 0
KAM2 081133Z 05001KT 07/M00 A2986 RMK A01 T00731003  RH  059%=      5-min Rain = 0
KAM2 081134Z 04001KT 07/M00 A2986 RMK A01 T00731003  RH  059%=      5-min Rain = 0
KAM2 081135Z 03000KT 07/M00 A2986 RMK A01 T00721002  RH  059%=      5-min Rain = 0
KAM2 081136Z 27000KT 07/M00 A2986 RMK A01 T00711003  RH  059%=      5-min Rain = 0
KAM2 081137Z 24001KT 07/M00 A2986 RMK A01 T00711003  RH  059%=      5-min Rain = 0
KAM2 081138Z 23003KT 07/M00 A2986 RMK A01 T00711003  RH  059%=      5-min Rain = 0
KAM2 081139Z 23003KT 07/M00 A2986 RMK A01 T00711002  RH  059%=      5-min Rain = 0
KAM2 081140Z 24004KT 07/M00 A2986 RMK A01 T00721002  RH  060%=      5-min Rain = 0
KAM2 081141Z 24004KT 07/M00 A2986 RMK A01 T00721003  RH  059%=      5-min Rain = 0
KAM2 081142Z 24004KT 08/M00 A2986 RMK A01 T00751003  RH  058%=      5-min Rain = 0
KAM2 081143Z 24004KT 08/M00 A2986 RMK A01 T00771003  RH  057%=      5-min Rain = 0
KAM2 081144Z 23004KT 08/M00 A2986 RMK A01 T00801003  RH  056%=      5-min Rain = 0
KAM2 081145Z 23004KT 08/M00 A2986 RMK A01 T00821003  RH  055%=      5-min Rain = 0
KAM2 081146Z 22003KT 08/M00 A2986 RMK A01 T00831002  RH  055%=      5-min Rain = 0
KAM2 081147Z 21003KT 08/M00 A2986 RMK A01 T00821001  RH  056%=      5-min Rain = 0
KAM2 081148Z 21003KT 08/M00 A2986 RMK A01 T00811001  RH  056%=      5-min Rain = 0
KAM2 081149Z 22003KT 08/M00 A2986 RMK A01 T00801002  RH  056%=      5-min Rain = 0
KAM2 081150Z 22003KT 08/M00 A2986 RMK A01 T00791002  RH  057%=      5-min Rain = 0
KAM2 081151Z 20003KT 08/M00 A2986 RMK A01 T00791001  RH  057%=      5-min Rain = 0
KAM2 081152Z 19004KT 08/M00 A2986 RMK A01 T00781001  RH  057%=      5-min Rain = 0
KAM2 081153Z 20004KT 08/00 A2986 RMK A01 T007600-0  RH  058%=      5-min Rain = 0
KAM2 081154Z 19004KT 07/00 A2986 RMK A01 T00740000  RH  060%=      5-min Rain = 0
KAM2 081155Z 20005KT 07/00 A2987 RMK A01 T00710000  RH  061%=      5-min Rain = 0
KAM2 081156Z 19005KT 07/00 A2987 RMK A01 T00690001  RH  062%=      5-min Rain = 0
KAM2 081157Z 17004KT 07/00 A2987 RMK A01 T00660002  RH  063%=      5-min Rain = 0
KAM2 081158Z 17005KT 06/00 A2987 RMK A01 T00640002  RH  065%=      5-min Rain = 0
KAM2 081159Z 18005KT 06/00 A2987 RMK A01 T00630002  RH  065%=      5-min Rain = 0
KAM2 081200Z 18004KT 06/00 A2987 RMK A01 T00620002  RH  065%=      5-min Rain = 0
KAM2 081201Z 18004KT 06/00 A2987 RMK A01 T00620002  RH  065%=      5-min Rain = 0
KAM2 081202Z 18004KT 06/00 A2987 RMK A01 T00620002  RH  065%=      5-min Rain = 0
KAM2 081203Z 18004KT 06/00 A2987 RMK A01 T00610001  RH  066%=      5-min Rain = 0
KAM2 081204Z 17004KT 06/00 A2987 RMK A01 T00600002  RH  066%=      5-min Rain = 0
KAM2 081205Z 18004KT 06/00 A2987 RMK A01 T00600002  RH  066%=      5-min Rain = 0
KAM2 081206Z 18003KT 06/00 A2987 RMK A01 T00600002  RH  066%=      5-min Rain = 0
KAM2 081207Z 18003KT 06/00 A2987 RMK A01 T00600002  RH  066%=      5-min Rain = 0
KAM2 081208Z 18003KT 06/00 A2987 RMK A01 T00590002  RH  067%=      5-min Rain = 0
KAM2 081209Z 17002KT 06/00 A2987 RMK A01 T00590002  RH  067%=      5-min Rain = 0
KAM2 081210Z 18002KT 06/00 A2987 RMK A01 T00590002  RH  067%=      5-min Rain = 0
KAM2 081211Z 17002KT 06/00 A2987 RMK A01 T00590002  RH  067%=      5-min Rain = 0
KAM2 081212Z 16002KT 06/00 A2986 RMK A01 T00590002  RH  067%=      5-min Rain = 0
KAM2 081213Z 14001KT 06/00 A2986 RMK A01 T00590002  RH  067%=      5-min Rain = 0
KAM2 081214Z 13002KT 06/00 A2986 RMK A01 T00590000  RH  066%=      5-min Rain = 0
KAM2 081215Z 12001KT 06/00 A2986 RMK A01 T00600000  RH  066%=      5-min Rain = 0
KAM2 081216Z 12001KT 06/00 A2986 RMK A01 T00610001  RH  066%=      5-min Rain = 0
KAM2 081217Z 07001KT 06/00 A2986 RMK A01 T00610001  RH  066%=      5-min Rain = 0
KAM2 081218Z 07001KT 06/00 A2986 RMK A01 T00610001  RH  066%=      5-min Rain = 0
KAM2 081219Z 13000KT 06/00 A2986 RMK A01 T00640001  RH  064%=      5-min Rain = 0
KAM2 081220Z 10001KT 07/00 A2986 RMK A01 T00660001  RH  063%=      5-min Rain = 0
KAM2 081221Z 11001KT 07/00 A2986 RMK A01 T00670002  RH  063%=      5-min Rain = 0
KAM2 081222Z 16001KT 07/00 A2986 RMK A01 T00660003  RH  064%=      5-min Rain = 0
KAM2 081223Z 14001KT 07/00 A2986 RMK A01 T00650002  RH  064%=      5-min Rain = 0
KAM2 081224Z 15001KT 06/00 A2986 RMK A01 T00640002  RH  065%=      5-min Rain = 0
KAM2 081225Z 19001KT 06/00 A2986 RMK A01 T00630001  RH  065%=      5-min Rain = 0
KAM2 081226Z 20002KT 06/00 A2986 RMK A01 T00630002  RH  065%=      5-min Rain = 0
KAM2 081227Z 19002KT 06/00 A2986 RMK A01 T00630002  RH  065%=      5-min Rain = 0
KAM2 081228Z 18002KT 06/00 A2986 RMK A01 T00620003  RH  066%=      5-min Rain = 0
KAM2 081229Z 18003KT 06/00 A2986 RMK A01 T00620003  RH  066%=      5-min Rain = 0
KAM2 081230Z 18002KT 06/00 A2986 RMK A01 T00620003  RH  066%=      5-min Rain = 0
KAM2 081231Z 17003KT 06/00 A2985 RMK A01 T00620002  RH  066%=      5-min Rain = 0
KAM2 081232Z 18002KT 06/00 A2985 RMK A01 T00620002  RH  066%=      5-min Rain = 0
KAM2 081233Z 18002KT 06/00 A2985 RMK A01 T00620002  RH  066%=      5-min Rain = 0
KAM2 081234Z 17002KT 06/00 A2985 RMK A01 T00620003  RH  066%=      5-min Rain = 0
KAM2 081235Z 17002KT 06/00 A2985 RMK A01 T00620003  RH  066%=      5-min Rain = 0
KAM2 081236Z 17002KT 06/00 A2985 RMK A01 T00610003  RH  066%=      5-min Rain = 0
KAM2 081237Z 18002KT 06/00 A2986 RMK A01 T00610003  RH  066%=      5-min Rain = 0
KAM2 081238Z 18001KT 06/00 A2986 RMK A01 T00610004  RH  066%=      5-min Rain = 0
KAM2 081239Z 19001KT 06/00 A2986 RMK A01 T00610003  RH  066%=      5-min Rain = 0
KAM2 081240Z 19000KT 06/00 A2986 RMK A01 T00620003  RH  066%=      5-min Rain = 0
KAM2 081241Z 00000KT 07/00 A2986 RMK A01 T00650004  RH  065%=      5-min Rain = 0
KAM2 081242Z 00000KT 07/00 A2986 RMK A01 T00660004  RH  065%=      5-min Rain = 0
KAM2 081243Z 00000KT 06/00 A2986 RMK A01 T00640004  RH  065%=      5-min Rain = 0
KAM2 081244Z 36001KT 06/00 A2987 RMK A01 T00610003  RH  066%=      5-min Rain = 0
KAM2 081245Z 35002KT 06/00 A2987 RMK A01 T00600003  RH  067%=      5-min Rain = 0
KAM2 081246Z 36002KT 06/00 A2987 RMK A01 T00600003  RH  067%=      5-min Rain = 0
KAM2 081247Z 35002KT 06/00 A2987 RMK A01 T00610003  RH  066%=      5-min Rain = 0
KAM2 081248Z 34002KT 06/00 A2987 RMK A01 T00640003  RH  065%=      5-min Rain = 0
KAM2 081249Z 33002KT 07/00 A2987 RMK A01 T00670003  RH  064%=      5-min Rain = 0
KAM2 081250Z 33002KT 07/00 A2987 RMK A01 T00680003  RH  063%=      5-min Rain = 0
KAM2 081251Z 33003KT 07/00 A2987 RMK A01 T00680003  RH  063%=      5-min Rain = 0
KAM2 081252Z 34003KT 07/00 A2987 RMK A01 T00660003  RH  064%=      5-min Rain = 0
KAM2 081253Z 35003KT 06/00 A2987 RMK A01 T00630002  RH  065%=      5-min Rain = 0
KAM2 081254Z 35003KT 06/00 A2987 RMK A01 T00620002  RH  065%=      5-min Rain = 0
KAM2 081255Z 01003KT 06/00 A2987 RMK A01 T00610002  RH  066%=      5-min Rain = 0
KAM2 081256Z 02003KT 06/00 A2987 RMK A01 T00610002  RH  066%=      5-min Rain = 0
KAM2 081257Z 02003KT 06/00 A2987 RMK A01 T00630003  RH  065%=      5-min Rain = 0
KAM2 081258Z 03004KT 07/00 A2987 RMK A01 T00650003  RH  064%=      5-min Rain = 0
KAM2 081259Z 03003KT 07/00 A2987 RMK A01 T00690003  RH  063%=      5-min Rain = 0
KAM2 081300Z 04003KT 07/00 A2987 RMK A01 T00720004  RH  062%=      5-min Rain = 0
KAM2 081301Z 04003KT 07/00 A2987 RMK A01 T00730003  RH  061%=      5-min Rain = 0
KAM2 081302Z 05003KT 07/00 A2987 RMK A01 T00740004  RH  061%=      5-min Rain = 0
KAM2 081303Z 04002KT 08/00 A2987 RMK A01 T00750003  RH  060%=      5-min Rain = 0
KAM2 081304Z 04002KT 08/00 A2987 RMK A01 T00770002  RH  059%=      5-min Rain = 0
KAM2 081305Z 04001KT 08/00 A2987 RMK A01 T00790003  RH  059%=      5-min Rain = 0
KAM2 081306Z 02002KT 08/00 A2987 RMK A01 T00790004  RH  059%=      5-min Rain = 0
KAM2 081307Z 02002KT 08/00 A2987 RMK A01 T00780003  RH  059%=      5-min Rain = 0
KAM2 081308Z 02002KT 08/00 A2986 RMK A01 T00780002  RH  059%=      5-min Rain = 0
KAM2 081309Z 02002KT 08/00 A2986 RMK A01 T00780003  RH  059%=      5-min Rain = 0
KAM2 081310Z 01002KT 08/00 A2986 RMK A01 T00780002  RH  059%=      5-min Rain = 0
KAM2 081311Z 01003KT 08/00 A2986 RMK A01 T00780002  RH  059%=      5-min Rain = 0
KAM2 081312Z 02003KT 08/00 A2986 RMK A01 T00770002  RH  059%=      5-min Rain = 0
KAM2 081313Z 03003KT 08/00 A2986 RMK A01 T00770001  RH  059%=      5-min Rain = 0
KAM2 081314Z 05001KT 08/00 A2986 RMK A01 T00770001  RH  058%=      5-min Rain = 0
KAM2 081315Z 06000KT 08/00 A2986 RMK A01 T00780002  RH  059%=      5-min Rain = 0
KAM2 081316Z 00000KT 08/01 A2986 RMK A01 T00750005  RH  061%=      5-min Rain = 0
KAM2 081317Z 00000KT 07/00 A2986 RMK A01 T00710003  RH  062%=      5-min Rain = 0
KAM2 081318Z 33001KT 07/00 A2986 RMK A01 T00700001  RH  061%=      5-min Rain = 0
KAM2 081319Z 31001KT 07/00 A2986 RMK A01 T007200-0  RH  060%=      5-min Rain = 0
KAM2 081320Z 31001KT 08/00 A2986 RMK A01 T00770001  RH  058%=      5-min Rain = 0
KAM2 081321Z 01001KT 08/00 A2986 RMK A01 T00790003  RH  059%=      5-min Rain = 0
KAM2 081322Z 34002KT 08/00 A2986 RMK A01 T00760002  RH  059%=      5-min Rain = 0
KAM2 081323Z 33001KT 08/00 A2986 RMK A01 T00750001  RH  060%=      5-min Rain = 0
KAM2 081324Z 33002KT 08/00 A2986 RMK A01 T00750000  RH  059%=      5-min Rain = 0
KAM2 081325Z 34002KT 08/00 A2986 RMK A01 T00770002  RH  059%=      5-min Rain = 0
KAM2 081326Z 36002KT 08/00 A2986 RMK A01 T00770003  RH  059%=      5-min Rain = 0
KAM2 081327Z 01002KT 08/00 A2986 RMK A01 T00750002  RH  060%=      5-min Rain = 0
KAM2 081328Z 35002KT 08/00 A2986 RMK A01 T00750002  RH  060%=      5-min Rain = 0
KAM2 081329Z 34002KT 07/00 A2986 RMK A01 T00730001  RH  060%=      5-min Rain = 0
KAM2 081330Z 34002KT 07/00 A2986 RMK A01 T00720002  RH  061%=      5-min Rain = 0
KAM2 081331Z 35001KT 07/00 A2986 RMK A01 T00720002  RH  061%=      5-min Rain = 0
KAM2 081332Z 00000KT 07/00 A2986 RMK A01 T00710004  RH  063%=      5-min Rain = 0
KAM2 081333Z 00000KT 07/00 A2986 RMK A01 T00690004  RH  063%=      5-min Rain = 0
KAM2 081334Z 00000KT 07/00 A2986 RMK A01 T00670004  RH  064%=      5-min Rain = 0
KAM2 081335Z 00000KT 07/00 A2986 RMK A01 T00660004  RH  065%=      5-min Rain = 0
KAM2 081336Z 19000KT 07/00 A2986 RMK A01 T00650004  RH  065%=      5-min Rain = 0
KAM2 081337Z 19000KT 06/00 A2986 RMK A01 T00640004  RH  065%=      5-min Rain = 0
KAM2 081338Z 00000KT 07/00 A2986 RMK A01 T00650004  RH  065%=      5-min Rain = 0
KAM2 081339Z 17000KT 07/01 A2986 RMK A01 T00650005  RH  065%=      5-min Rain = 0
KAM2 081340Z 17001KT 07/01 A2986 RMK A01 T00650005  RH  065%=      5-min Rain = 0
KAM2 081341Z 18002KT 07/00 A2985 RMK A01 T00660004  RH  065%=      5-min Rain = 0
KAM2 081342Z 18002KT 07/01 A2985 RMK A01 T00660005  RH  065%=      5-min Rain = 0
KAM2 081343Z 18002KT 06/01 A2985 RMK A01 T00640006  RH  066%=      5-min Rain = 0
KAM2 081344Z 19003KT 06/01 A2986 RMK A01 T00630006  RH  067%=      5-min Rain = 0
KAM2 081345Z 19003KT 06/01 A2986 RMK A01 T00630007  RH  067%=      5-min Rain = 0
KAM2 081346Z 18004KT 06/01 A2986 RMK A01 T00620007  RH  068%=      5-min Rain = 0
KAM2 081347Z 18004KT 06/01 A2985 RMK A01 T00610007  RH  068%=      5-min Rain = 0
KAM2 081348Z 18004KT 06/01 A2985 RMK A01 T00620006  RH  068%=      5-min Rain = 0
KAM2 081349Z 18005KT 06/01 A2985 RMK A01 T00620007  RH  068%=      5-min Rain = 0
KAM2 081350Z 18004KT 06/01 A2985 RMK A01 T00620008  RH  068%=      5-min Rain = 0
KAM2 081351Z 18004KT 06/01 A2985 RMK A01 T00620008  RH  069%=      5-min Rain = 0
KAM2 081352Z 18003KT 06/01 A2985 RMK A01 T00610008  RH  069%=      5-min Rain = 0
KAM2 081353Z 17004KT 06/01 A2985 RMK A01 T00610008  RH  069%=      5-min Rain = 0
KAM2 081354Z 18004KT 06/01 A2985 RMK A01 T00610008  RH  069%=      5-min Rain = 0
KAM2 081355Z 19004KT 06/01 A2985 RMK A01 T00620008  RH  068%=      5-min Rain = 0
KAM2 081356Z 19005KT 06/01 A2986 RMK A01 T00620007  RH  068%=      5-min Rain = 0
KAM2 081357Z 20005KT 06/01 A2986 RMK A01 T00630008  RH  068%=      5-min Rain = 0
KAM2 081358Z 20005KT 06/01 A2986 RMK A01 T00640008  RH  067%=      5-min Rain = 0
KAM2 081359Z 20005KT 07/01 A2986 RMK A01 T00650007  RH  067%=      5-min Rain = 0
KAM2 081400Z 20005KT 07/01 A2986 RMK A01 T00660008  RH  066%=      5-min Rain = 0
KAM2 081401Z 20004KT 07/01 A2986 RMK A01 T00670008  RH  066%=      5-min Rain = 0
KAM2 081402Z 19004KT 07/01 A2986 RMK A01 T00680008  RH  066%=      5-min Rain = 0
KAM2 081403Z 19004KT 07/01 A2986 RMK A01 T00680008  RH  065%=      5-min Rain = 0
KAM2 081404Z 19004KT 07/01 A2986 RMK A01 T00690008  RH  065%=      5-min Rain = 0
KAM2 081405Z 19004KT 07/01 A2986 RMK A01 T00690008  RH  065%=      5-min Rain = 0
KAM2 081406Z 19004KT 07/01 A2985 RMK A01 T00700008  RH  065%=      5-min Rain = 0
KAM2 081407Z 19004KT 07/01 A2985 RMK A01 T00700008  RH  065%=      5-min Rain = 0
KAM2 081408Z 19003KT 07/01 A2985 RMK A01 T00710008  RH  064%=      5-min Rain = 0
KAM2 081409Z 20003KT 07/01 A2985 RMK A01 T00710008  RH  064%=      5-min Rain = 0
KAM2 081410Z 20003KT 07/01 A2985 RMK A01 T00710009  RH  064%=      5-min Rain = 0
KAM2 081411Z 21003KT 07/01 A2985 RMK A01 T00720009  RH  064%=      5-min Rain = 0
KAM2 081412Z 19002KT 07/01 A2985 RMK A01 T00710009  RH  064%=      5-min Rain = 0
KAM2 081413Z 19002KT 07/01 A2985 RMK A01 T00710009  RH  064%=      5-min Rain = 0
KAM2 081414Z 19002KT 07/01 A2985 RMK A01 T00710009  RH  065%=      5-min Rain = 0
KAM2 081415Z 19002KT 07/01 A2985 RMK A01 T00710009  RH  065%=      5-min Rain = 0
KAM2 081416Z 20002KT 07/01 A2985 RMK A01 T00720008  RH  064%=      5-min Rain = 0
KAM2 081417Z 20003KT 07/01 A2985 RMK A01 T00720009  RH  064%=      5-min Rain = 0
KAM2 081418Z 19003KT 07/01 A2985 RMK A01 T00730011  RH  065%=      5-min Rain = 0
KAM2 081419Z 19004KT 07/01 A2985 RMK A01 T00730011  RH  065%=      5-min Rain = 0
KAM2 081420Z 20003KT 07/01 A2985 RMK A01 T00730013  RH  066%=      5-min Rain = 0
KAM2 081421Z 20004KT 07/01 A2985 RMK A01 T00730014  RH  066%=      5-min Rain = 0
KAM2 081422Z 20003KT 07/01 A2985 RMK A01 T00730014  RH  066%=      5-min Rain = 0
KAM2 081423Z 21003KT 07/01 A2985 RMK A01 T00740014  RH  066%=      5-min Rain = 0
KAM2 081424Z 21003KT 08/01 A2985 RMK A01 T00750014  RH  065%=      5-min Rain = 0
KAM2 081425Z 21002KT 08/01 A2985 RMK A01 T00760014  RH  065%=      5-min Rain = 0
KAM2 081426Z 21002KT 08/01 A2985 RMK A01 T00770013  RH  064%=      5-min Rain = 0
KAM2 081427Z 21002KT 08/01 A2985 RMK A01 T00780013  RH  064%=      5-min Rain = 0
KAM2 081428Z 22002KT 08/01 A2985 RMK A01 T00790014  RH  063%=      5-min Rain = 0
KAM2 081429Z 24001KT 08/02 A2985 RMK A01 T00800015  RH  063%=      5-min Rain = 0
KAM2 081430Z 31001KT 08/02 A2985 RMK A01 T00810018  RH  064%=      5-min Rain = 0
KAM2 081431Z 33001KT 08/02 A2985 RMK A01 T00810019  RH  065%=      5-min Rain = 0
KAM2 081432Z 31002KT 08/02 A2985 RMK A01 T00790017  RH  065%=      5-min Rain = 0
KAM2 081433Z 32002KT 08/02 A2985 RMK A01 T00790016  RH  064%=      5-min Rain = 0
KAM2 081434Z 33002KT 08/02 A2985 RMK A01 T00790016  RH  064%=      5-min Rain = 0
KAM2 081435Z 35002KT 08/02 A2985 RMK A01 T00790017  RH  065%=      5-min Rain = 0
KAM2 081436Z 01001KT 08/02 A2985 RMK A01 T00780017  RH  065%=      5-min Rain = 0
KAM2 081437Z 06001KT 08/02 A2985 RMK A01 T00790017  RH  065%=      5-min Rain = 0
KAM2 081438Z 09001KT 08/02 A2985 RMK A01 T00790016  RH  065%=      5-min Rain = 0
KAM2 081439Z 13001KT 08/02 A2985 RMK A01 T00790018  RH  065%=      5-min Rain = 0
KAM2 081440Z 11001KT 08/02 A2985 RMK A01 T00800017  RH  065%=      5-min Rain = 0
KAM2 081441Z 10000KT 08/02 A2985 RMK A01 T00800015  RH  064%=      5-min Rain = 0
KAM2 081442Z 08000KT 08/01 A2985 RMK A01 T00810013  RH  062%=      5-min Rain = 0
KAM2 081443Z 14000KT 08/02 A2985 RMK A01 T00820015  RH  063%=      5-min Rain = 0
KAM2 081444Z 14002KT 08/02 A2985 RMK A01 T00830018  RH  064%=      5-min Rain = 0
KAM2 081445Z 14002KT 08/02 A2985 RMK A01 T00840020  RH  064%=      5-min Rain = 0
KAM2 081446Z 13001KT 09/02 A2985 RMK A01 T00850020  RH  064%=      5-min Rain = 0
KAM2 081447Z 13001KT 09/02 A2985 RMK A01 T00860020  RH  063%=      5-min Rain = 0
KAM2 081448Z 14001KT 09/02 A2985 RMK A01 T00860020  RH  063%=      5-min Rain = 0
KAM2 081449Z 13001KT 09/02 A2985 RMK A01 T00870022  RH  064%=      5-min Rain = 0
KAM2 081450Z 15001KT 09/02 A2985 RMK A01 T00870024  RH  064%=      5-min Rain = 0
KAM2 081451Z 17001KT 09/02 A2985 RMK A01 T00880021  RH  063%=      5-min Rain = 0
KAM2 081452Z 17001KT 09/02 A2985 RMK A01 T00880024  RH  064%=      5-min Rain = 0
KAM2 081453Z 17001KT 09/02 A2985 RMK A01 T00870023  RH  064%=      5-min Rain = 0
KAM2 081454Z 18002KT 09/02 A2985 RMK A01 T00870023  RH  064%=      5-min Rain = 0
KAM2 081455Z 17002KT 09/02 A2985 RMK A01 T00870024  RH  065%=      5-min Rain = 0
KAM2 081456Z 16002KT 09/03 A2985 RMK A01 T00870025  RH  065%=      5-min Rain = 0
KAM2 081457Z 15003KT 09/03 A2985 RMK A01 T00880026  RH  065%=      5-min Rain = 0
KAM2 081458Z 15002KT 09/03 A2985 RMK A01 T00890025  RH  064%=      5-min Rain = 0
KAM2 081459Z 16003KT 09/03 A2985 RMK A01 T00900026  RH  064%=      5-min Rain = 0
KAM2 081500Z 17002KT 09/03 A2985 RMK A01 T00910026  RH  064%=      5-min Rain = 0
KAM2 081501Z 18002KT 09/03 A2985 RMK A01 T00920025  RH  063%=      5-min Rain = 0
KAM2 081502Z 20001KT 09/03 A2985 RMK A01 T00930027  RH  063%=      5-min Rain = 0
KAM2 081503Z 19001KT 09/03 A2985 RMK A01 T00940026  RH  062%=      5-min Rain = 0
KAM2 081504Z 20002KT 09/02 A2985 RMK A01 T00940024  RH  062%=      5-min Rain = 0
KAM2 081505Z 20001KT 09/02 A2985 RMK A01 T00940024  RH  061%=      5-min Rain = 0
KAM2 081506Z 21001KT 10/02 A2985 RMK A01 T00950024  RH  061%=      5-min Rain = 0
KAM2 081507Z 21002KT 10/02 A2985 RMK A01 T00950023  RH  061%=      5-min Rain = 0
KAM2 081508Z 20001KT 10/02 A2985 RMK A01 T00960023  RH  060%=      5-min Rain = 0
KAM2 081509Z 21001KT 10/02 A2984 RMK A01 T00970024  RH  060%=      5-min Rain = 0
KAM2 081510Z 20001KT 10/03 A2984 RMK A01 T00980025  RH  060%=      5-min Rain = 0
KAM2 081511Z 20001KT 10/02 A2984 RMK A01 T00990023  RH  059%=      5-min Rain = 0
KAM2 081512Z 21001KT 10/02 A2985 RMK A01 T01010022  RH  058%=      5-min Rain = 0
KAM2 081513Z 21001KT 10/02 A2985 RMK A01 T01020022  RH  058%=      5-min Rain = 0
KAM2 081514Z 21002KT 10/02 A2985 RMK A01 T01030023  RH  058%=      5-min Rain = 0
KAM2 081515Z 21002KT 10/02 A2985 RMK A01 T01040024  RH  058%=      5-min Rain = 0
KAM2 081516Z 20002KT 11/03 A2985 RMK A01 T01050025  RH  058%=      5-min Rain = 0
KAM2 081517Z 20002KT 11/03 A2985 RMK A01 T01050026  RH  058%=      5-min Rain = 0
KAM2 081518Z 20003KT 11/03 A2985 RMK A01 T01060027  RH  058%=      5-min Rain = 0
KAM2 081519Z 20003KT 11/03 A2985 RMK A01 T01060028  RH  058%=      5-min Rain = 0
KAM2 081520Z 19003KT 11/03 A2985 RMK A01 T01070029  RH  059%=      5-min Rain = 0
KAM2 081521Z 19004KT 11/03 A2985 RMK A01 T01070030  RH  059%=      5-min Rain = 0
KAM2 081522Z 19004KT 11/03 A2985 RMK A01 T01070029  RH  058%=      5-min Rain = 0
KAM2 081523Z 19005KT 11/03 A2985 RMK A01 T01080027  RH  057%=      5-min Rain = 0
KAM2 081524Z 19005KT 11/02 A2985 RMK A01 T01090024  RH  056%=      5-min Rain = 0
KAM2 081525Z 18005KT 11/03 A2985 RMK A01 T01090025  RH  056%=      5-min Rain = 0
KAM2 081526Z 19005KT 11/03 A2985 RMK A01 T01090025  RH  056%=      5-min Rain = 0
KAM2 081527Z 19005KT 11/02 A2985 RMK A01 T01090024  RH  055%=      5-min Rain = 0
KAM2 081528Z 19005KT 11/02 A2985 RMK A01 T01100024  RH  056%=      5-min Rain = 0
KAM2 081529Z 19005KT 11/03 A2985 RMK A01 T01100025  RH  056%=      5-min Rain = 0
KAM2 081530Z 19005KT 11/03 A2985 RMK A01 T01100025  RH  056%=      5-min Rain = 0
KAM2 081531Z 19005KT 11/03 A2985 RMK A01 T01100026  RH  056%=      5-min Rain = 0
KAM2 081532Z 19005KT 11/03 A2985 RMK A01 T01100025  RH  056%=      5-min Rain = 0
KAM2 081533Z 20005KT 11/03 A2985 RMK A01 T01110025  RH  055%=      5-min Rain = 0
KAM2 081534Z 20004KT 11/03 A2985 RMK A01 T01120026  RH  055%=      5-min Rain = 0
KAM2 081535Z 20004KT 11/03 A2985 RMK A01 T01130025  RH  055%=      5-min Rain = 0
KAM2 081536Z 20004KT 12/03 A2985 RMK A01 T01150026  RH  054%=      5-min Rain = 0
KAM2 081537Z 20004KT 12/03 A2985 RMK A01 T01160026  RH  054%=      5-min Rain = 0
KAM2 081538Z 21003KT 12/03 A2985 RMK A01 T01180027  RH  054%=      5-min Rain = 0
KAM2 081539Z 20004KT 12/03 A2985 RMK A01 T01200027  RH  053%=      5-min Rain = 0
KAM2 081540Z 21004KT 12/03 A2985 RMK A01 T01220026  RH  052%=      5-min Rain = 0
KAM2 081541Z 21004KT 13/03 A2985 RMK A01 T01250028  RH  052%=      5-min Rain = 0
KAM2 081542Z 20004KT 13/03 A2985 RMK A01 T01270027  RH  050%=      5-min Rain = 0
KAM2 081543Z 20004KT 13/03 A2985 RMK A01 T01290026  RH  049%=      5-min Rain = 0
KAM2 081544Z 22005KT 13/03 A2985 RMK A01 T01320025  RH  048%=      5-min Rain = 0
KAM2 081545Z 22005KT 13/02 A2985 RMK A01 T01330023  RH  047%=      5-min Rain = 0
KAM2 081546Z 22004KT 13/02 A2985 RMK A01 T01330021  RH  046%=      5-min Rain = 0
KAM2 081547Z 21006KT 13/02 A2985 RMK A01 T01330022  RH  047%=      5-min Rain = 0
KAM2 081548Z 23004KT 14/02 A2985 RMK A01 T01350022  RH  047%=      5-min Rain = 0
KAM2 081549Z 22004KT 14/02 A2985 RMK A01 T01360021  RH  046%=      5-min Rain = 0
KAM2 081550Z 23005KT 14/02 A2985 RMK A01 T01370018  RH  044%=      5-min Rain = 0
KAM2 081551Z 22004KT 14/02 A2985 RMK A01 T01370019  RH  045%=      5-min Rain = 0
KAM2 081552Z 22006KT 14/02 A2985 RMK A01 T01380020  RH  045%=      5-min Rain = 0
KAM2 081553Z 24007KT 14/02 A2984 RMK A01 T01390018  RH  044%=      5-min Rain = 0
KAM2 081554Z 24006KT 14/02 A2984 RMK A01 T01400017  RH  043%=      5-min Rain = 0
KAM2 081555Z 24006KT 14/02 A2985 RMK A01 T01410019  RH  043%=      5-min Rain = 0
KAM2 081556Z 24007KT 14/02 A2985 RMK A01 T01410017  RH  043%=      5-min Rain = 0
KAM2 081557Z 24007KT 14/02 A2985 RMK A01 T01410018  RH  043%=      5-min Rain = 0
KAM2 081558Z 25006KT 14/02 A2985 RMK A01 T01420019  RH  043%=      5-min Rain = 0
KAM2 081559Z 25007KT 14/02 A2985 RMK A01 T01430018  RH  043%=      5-min Rain = 0
KAM2 081600Z 23006KT 14/02 A2985 RMK A01 T01440018  RH  042%=      5-min Rain = 0
KAM2 081601Z 25006KT 15/02 A2985 RMK A01 T01450019  RH  042%=      5-min Rain = 0
KAM2 081602Z 25006KT 15/02 A2984 RMK A01 T01460019  RH  042%=      5-min Rain = 0
KAM2 081603Z 26006KT 15/02 A2984 RMK A01 T01470020  RH  042%=      5-min Rain = 0
KAM2 081604Z 26005KT 15/02 A2984 RMK A01 T01470019  RH  042%=      5-min Rain = 0
KAM2 081605Z 26005KT 15/02 A2985 RMK A01 T01480020  RH  042%=      5-min Rain = 0
KAM2 081606Z 26005KT 15/02 A2985 RMK A01 T01480020  RH  042%=      5-min Rain = 0
KAM2 081607Z 28005KT 15/02 A2985 RMK A01 T01480020  RH  042%=      5-min Rain = 0
KAM2 081608Z 27007KT 15/02 A2985 RMK A01 T01470017  RH  041%=      5-min Rain = 0
KAM2 081609Z 27004KT 15/02 A2984 RMK A01 T01470018  RH  042%=      5-min Rain = 0
KAM2 081610Z 26004KT 15/02 A2984 RMK A01 T01480020  RH  042%=      5-min Rain = 0
KAM2 081611Z 27004KT 15/02 A2984 RMK A01 T01490019  RH  041%=      5-min Rain = 0
KAM2 081612Z 26004KT 15/02 A2984 RMK A01 T01510020  RH  041%=      5-min Rain = 0
KAM2 081613Z 26007KT 15/02 A2984 RMK A01 T01530021  RH  041%=      5-min Rain = 0
KAM2 081614Z 26007KT 15/02 A2984 RMK A01 T01540018  RH  040%=      5-min Rain = 0
KAM2 081615Z 26006KT 15/02 A2984 RMK A01 T01540017  RH  039%=      5-min Rain = 0
KAM2 081616Z 27008KT 15/02 A2984 RMK A01 T01540018  RH  040%=      5-min Rain = 0
KAM2 081617Z 27008KT 15/02 A2984 RMK A01 T01540018  RH  040%=      5-min Rain = 0
KAM2 081618Z 27008KT 15/02 A2984 RMK A01 T01540018  RH  040%=      5-min Rain = 0
KAM2 081619Z 27006KT 15/02 A2984 RMK A01 T01530018  RH  040%=      5-min Rain = 0
KAM2 081620Z 27006KT 15/02 A2984 RMK A01 T01530018  RH  040%=      5-min Rain = 0
KAM2 081621Z 27008KT 15/02 A2984 RMK A01 T01530018  RH  040%=      5-min Rain = 0
KAM2 081622Z 27008KT 15/02 A2984 RMK A01 T01530018  RH  040%=      5-min Rain = 0
KAM2 081623Z 26008KT 15/02 A2984 RMK A01 T01520017  RH  040%=      5-min Rain = 0
KAM2 081624Z 26009KT 15/02 A2984 RMK A01 T01520018  RH  040%=      5-min Rain = 0
KAM2 081625Z 26008KT 15/02 A2984 RMK A01 T01530018  RH  040%=      5-min Rain = 0
KAM2 081626Z 27008KT 15/02 A2983 RMK A01 T01540019  RH  040%=      5-min Rain = 0
KAM2 081627Z 28007KT 16/02 A2983 RMK A01 T01550019  RH  040%=      5-min Rain = 0
KAM2 081628Z 26007KT 16/02 A2983 RMK A01 T01560019  RH  039%=      5-min Rain = 0
KAM2 081629Z 27006KT 16/02 A2984 RMK A01 T01560019  RH  040%=      5-min Rain = 0
KAM2 081630Z 28008KT 16/02 A2984 RMK A01 T01580020  RH  039%=      5-min Rain = 0
KAM2 081631Z 26007KT 16/02 A2983 RMK A01 T01590020  RH  039%=      5-min Rain = 0
KAM2 081632Z 25008KT 16/02 A2983 RMK A01 T01600021  RH  039%=      5-min Rain = 0
KAM2 081633Z 25008KT 16/02 A2983 RMK A01 T01610021  RH  039%=      5-min Rain = 0
KAM2 081634Z 25009KT 16/02 A2983 RMK A01 T01620022  RH  039%=      5-min Rain = 0
KAM2 081635Z 25009KT 16/02 A2983 RMK A01 T01630021  RH  038%=      5-min Rain = 0
KAM2 081636Z 26010KT 16/02 A2982 RMK A01 T01640022  RH  038%=      5-min Rain = 0
KAM2 081637Z 26010KT 16/02 A2982 RMK A01 T01630021  RH  038%=      5-min Rain = 0
KAM2 081638Z 26009KT 16/02 A2982 RMK A01 T01620020  RH  038%=      5-min Rain = 0
KAM2 081639Z 26007KT 16/02 A2982 RMK A01 T01620021  RH  039%=      5-min Rain = 0
KAM2 081640Z 27008KT 16/02 A2982 RMK A01 T01630023  RH  039%=      5-min Rain = 0
KAM2 081641Z 27008KT 17/02 A2982 RMK A01 T01650022  RH  038%=      5-min Rain = 0
KAM2 081642Z 26007KT 17/02 A2982 RMK A01 T01650023  RH  038%=      5-min Rain = 0
KAM2 081643Z 26006KT 17/03 A2982 RMK A01 T01660025  RH  039%=      5-min Rain = 0
KAM2 081644Z 27007KT 17/02 A2982 RMK A01 T01670023  RH  038%=      5-min Rain = 0
KAM2 081645Z 26006KT 17/02 A2982 RMK A01 T01650021  RH  038%=      5-min Rain = 0
KAM2 081646Z 27007KT 16/02 A2982 RMK A01 T01640024  RH  039%=      5-min Rain = 0
KAM2 081647Z 26008KT 17/02 A2982 RMK A01 T01650023  RH  038%=      5-min Rain = 0
KAM2 081648Z 27007KT 16/02 A2982 RMK A01 T01640023  RH  039%=      5-min Rain = 0
KAM2 081649Z 27006KT 17/02 A2982 RMK A01 T01650023  RH  038%=      5-min Rain = 0
KAM2 081650Z 25006KT 17/02 A2982 RMK A01 T01650024  RH  039%=      5-min Rain = 0
KAM2 081651Z 25007KT 17/03 A2982 RMK A01 T01670025  RH  038%=      5-min Rain = 0
KAM2 081652Z 26006KT 17/02 A2982 RMK A01 T01680024  RH  038%=      5-min Rain = 0
KAM2 081653Z 26008KT 17/02 A2982 RMK A01 T01690024  RH  038%=      5-min Rain = 0
KAM2 081654Z 27008KT 17/02 A2981 RMK A01 T01700024  RH  038%=      5-min Rain = 0
KAM2 081655Z 28009KT 17/03 A2982 RMK A01 T01700025  RH  038%=      5-min Rain = 0
KAM2 081656Z 28009KT 17/02 A2982 RMK A01 T01700024  RH  038%=      5-min Rain = 0
KAM2 081657Z 28008KT 17/03 A2982 RMK A01 T01710025  RH  038%=      5-min Rain = 0
KAM2 081658Z 25008KT 17/03 A2982 RMK A01 T01730025  RH  037%=      5-min Rain = 0
KAM2 081659Z 26008KT 17/02 A2982 RMK A01 T01720024  RH  037%=      5-min Rain = 0
KAM2 081700Z 27009KT 17/02 A2982 RMK A01 T01720024  RH  037%=      5-min Rain = 0
KAM2 081701Z 27010KT 17/02 A2982 RMK A01 T01710023  RH  037%=      5-min Rain = 0
KAM2 081702Z 27010KT 17/02 A2982 RMK A01 T01710024  RH  037%=      5-min Rain = 0
KAM2 081703Z 26011KT 17/02 A2982 RMK A01 T01720023  RH  037%=      5-min Rain = 0
KAM2 081704Z 27009KT 17/02 A2981 RMK A01 T01720023  RH  037%=      5-min Rain = 0
KAM2 081705Z 28010KT 17/02 A2981 RMK A01 T01720023  RH  037%=      5-min Rain = 0
KAM2 081706Z 27010KT 17/02 A2981 RMK A01 T01720024  RH  037%=      5-min Rain = 0
KAM2 081707Z 27010KT 17/03 A2981 RMK A01 T01720025  RH  037%=      5-min Rain = 0
KAM2 081708Z 28009KT 17/02 A2981 RMK A01 T01710023  RH  037%=      5-min Rain = 0
KAM2 081709Z 25006KT 17/02 A2981 RMK A01 T01690023  RH  038%=      5-min Rain = 0
KAM2 081710Z 25006KT 17/02 A2981 RMK A01 T01680024  RH  038%=      5-min Rain = 0
KAM2 081711Z 26005KT 17/02 A2981 RMK A01 T01690024  RH  038%=      5-min Rain = 0
KAM2 081712Z 28008KT 17/03 A2981 RMK A01 T01700025  RH  038%=      5-min Rain = 0
KAM2 081713Z 28008KT 17/03 A2981 RMK A01 T01730026  RH  038%=      5-min Rain = 0
KAM2 081714Z 26009KT 18/03 A2981 RMK A01 T01750027  RH  037%=      5-min Rain = 0
KAM2 081715Z 26008KT 18/03 A2981 RMK A01 T01760026  RH  037%=      5-min Rain = 0
KAM2 081716Z 25007KT 18/03 A2981 RMK A01 T01750026  RH  037%=      5-min Rain = 0
KAM2 081717Z 27009KT 18/03 A2981 RMK A01 T01760028  RH  037%=      5-min Rain = 0
KAM2 081718Z 25008KT 18/03 A2981 RMK A01 T01780029  RH  037%=      5-min Rain = 0
KAM2 081719Z 26008KT 18/03 A2981 RMK A01 T01790029  RH  037%=      5-min Rain = 0
KAM2 081720Z 25011KT 18/03 A2981 RMK A01 T01800029  RH  036%=      5-min Rain = 0
KAM2 081721Z 26008KT 18/03 A2981 RMK A01 T01800028  RH  036%=      5-min Rain = 0
KAM2 081722Z 25009KT 18/03 A2981 RMK A01 T01810031  RH  037%=      5-min Rain = 0
KAM2 081723Z 25010KT 18/03 A2981 RMK A01 T01840030  RH  036%=      5-min Rain = 0
KAM2 081724Z 25013KT 18/03 A2981 RMK A01 T01840030  RH  036%=      5-min Rain = 0
KAM2 081725Z 25013KT 18/03 A2981 RMK A01 T01820029  RH  036%=      5-min Rain = 0
KAM2 081726Z 25010KT 18/03 A2981 RMK A01 T01800029  RH  036%=      5-min Rain = 0
KAM2 081727Z 26010KT 18/03 A2981 RMK A01 T01800031  RH  037%=      5-min Rain = 0
KAM2 081728Z 26010KT 18/03 A2981 RMK A01 T01820031  RH  037%=      5-min Rain = 0
KAM2 081729Z 25010KT 18/03 A2981 RMK A01 T01830031  RH  036%=      5-min Rain = 0
KAM2 081730Z 25010KT 18/03 A298 RMK A01 T01820031  RH  036%=      5-min Rain = 0
KAM2 081731Z 26009KT 18/03 A298 RMK A01 T01810031  RH  037%=      5-min Rain = 0
KAM2 081732Z 27011KT 18/03 A298 RMK A01 T01820031  RH  036%=      5-min Rain = 0
KAM2 081733Z 25013KT 18/03 A298 RMK A01 T01820031  RH  036%=      5-min Rain = 0
KAM2 081734Z 24010KT 18/03 A298 RMK A01 T01820031  RH  037%=      5-min Rain = 0
KAM2 081735Z 24011KT 18/03 A298 RMK A01 T01810031  RH  037%=      5-min Rain = 0
KAM2 081736Z 24011KT 18/03 A298 RMK A01 T01800031  RH  037%=      5-min Rain = 0
KAM2 081737Z 24010G16KT 18/03 A298 RMK A01 T01810032  RH  037%=      5-min Rain = 0
KAM2 081738Z 26012KT 18/03 A298 RMK A01 T01820032  RH  037%=      5-min Rain = 0
KAM2 081739Z 24010KT 18/03 A298 RMK A01 T01820032  RH  037%=      5-min Rain = 0
KAM2 081740Z 24011KT 18/03 A2979 RMK A01 T01830032  RH  037%=      5-min Rain = 0
KAM2 081741Z 25010KT 18/03 A2979 RMK A01 T01830032  RH  037%=      5-min Rain = 0
KAM2 081742Z 25011KT 19/04 A2979 RMK A01 T01850035  RH  037%=      5-min Rain = 0
KAM2 081743Z 26012KT 19/03 A2979 RMK A01 T01880033  RH  036%=      5-min Rain = 0
KAM2 081744Z 25012KT 19/03 A2979 RMK A01 T01860031  RH  036%=      5-min Rain = 0
KAM2 081745Z 25009KT 18/03 A2979 RMK A01 T01840031  RH  036%=      5-min Rain = 0
KAM2 081746Z 24011KT 19/03 A2979 RMK A01 T01850032  RH  036%=      5-min Rain = 0
KAM2 081747Z 24009KT 18/03 A2979 RMK A01 T01830030  RH  036%=      5-min Rain = 0
KAM2 081748Z 26011KT 18/03 A2978 RMK A01 T01830032  RH  037%=      5-min Rain = 0
KAM2 081749Z 26012KT 18/03 A2978 RMK A01 T01840032  RH  036%=      5-min Rain = 0
KAM2 081750Z 27009KT 18/03 A2978 RMK A01 T01840032  RH  036%=      5-min Rain = 0
KAM2 081751Z 27013KT 19/03 A2978 RMK A01 T01860033  RH  036%=      5-min Rain = 0
KAM2 081752Z 27012KT 19/03 A2978 RMK A01 T01860031  RH  036%=      5-min Rain = 0
KAM2 081753Z 27010KT 18/03 A2978 RMK A01 T01840032  RH  036%=      5-min Rain = 0
KAM2 081754Z 26012KT 18/03 A2978 RMK A01 T01840032  RH  036%=      5-min Rain = 0
KAM2 081755Z 26009KT 18/03 A2978 RMK A01 T01840033  RH  037%=      5-min Rain = 0
KAM2 081756Z 28013KT 19/03 A2978 RMK A01 T01850034  RH  037%=      5-min Rain = 0
KAM2 081757Z 26008KT 19/04 A2978 RMK A01 T01860035  RH  037%=      5-min Rain = 0
KAM2 081758Z 26009KT 19/04 A2977 RMK A01 T01880037  RH  037%=      5-min Rain = 0
KAM2 081759Z 25011KT 19/04 A2977 RMK A01 T01900037  RH  036%=      5-min Rain = 0
KAM2 081800Z 24016KT 19/04 A2978 RMK A01 T01900037  RH  036%=      5-min Rain = 0
KAM2 081801Z 25012G17KT 19/04 A2978 RMK A01 T01890036  RH  036%=      5-min Rain = 0
KAM2 081802Z 25015KT 19/04 A2978 RMK A01 T01890037  RH  036%=      5-min Rain = 0
KAM2 081803Z 25015KT 19/03 A2978 RMK A01 T01880034  RH  036%=      5-min Rain = 0
KAM2 081804Z 26011KT 19/03 A2977 RMK A01 T01860034  RH  036%=      5-min Rain = 0
KAM2 081805Z 26012KT 19/04 A2977 RMK A01 T01870035  RH  036%=      5-min Rain = 0
KAM2 081806Z 26011KT 19/04 A2977 RMK A01 T01880035  RH  036%=      5-min Rain = 0
KAM2 081807Z 25015KT 19/04 A2977 RMK A01 T01880037  RH  037%=      5-min Rain = 0
KAM2 081808Z 26013KT 19/04 A2977 RMK A01 T01880037  RH  037%=      5-min Rain = 0
KAM2 081809Z 26012KT 19/04 A2977 RMK A01 T01890037  RH  036%=      5-min Rain = 0
KAM2 081810Z 25014KT 19/04 A2977 RMK A01 T01890036  RH  036%=      5-min Rain = 0
KAM2 081811Z 24013KT 19/04 A2977 RMK A01 T01880035  RH  036%=      5-min Rain = 0
KAM2 081812Z 25012KT 19/04 A2977 RMK A01 T01880036  RH  036%=      5-min Rain = 0
KAM2 081813Z 24011KT 19/04 A2976 RMK A01 T01890037  RH  036%=      5-min Rain = 0
KAM2 081814Z 23013KT 19/04 A2976 RMK A01 T01890036  RH  036%=      5-min Rain = 0
KAM2 081815Z 24013KT 19/04 A2976 RMK A01 T01890036  RH  036%=      5-min Rain = 0
KAM2 081816Z 24014KT 19/04 A2976 RMK A01 T01900035  RH  036%=      5-min Rain = 0
KAM2 081817Z 24011KT 19/04 A2976 RMK A01 T01890035  RH  036%=      5-min Rain = 0
KAM2 081818Z 24016KT 19/04 A2976 RMK A01 T01910036  RH  036%=      5-min Rain = 0
KAM2 081819Z 26015KT 19/04 A2976 RMK A01 T01910036  RH  036%=      5-min Rain = 0
KAM2 081820Z 26012G17KT 19/04 A2976 RMK A01 T01910035  RH  036%=      5-min Rain = 0
KAM2 081821Z 26013KT 19/04 A2976 RMK A01 T01900035  RH  036%=      5-min Rain = 0
KAM2 081822Z 25011KT 19/03 A2976 RMK A01 T01900034  RH  036%=      5-min Rain = 0
KAM2 081823Z 23011G20KT 19/04 A2976 RMK A01 T01880035  RH  036%=      5-min Rain = 0
KAM2 081824Z 26012G17KT 19/04 A2975 RMK A01 T01890037  RH  036%=      5-min Rain = 0
KAM2 081825Z 25014KT 19/04 A2976 RMK A01 T01930037  RH  036%=      5-min Rain = 0
KAM2 081826Z 27010KT 20/04 A2976 RMK A01 T01950036  RH  035%=      5-min Rain = 0
KAM2 081827Z 26011KT 20/04 A2976 RMK A01 T01960035  RH  034%=      5-min Rain = 0
KAM2 081828Z 27015KT 20/03 A2976 RMK A01 T01950034  RH  034%=      5-min Rain = 0
KAM2 081829Z 27013KT 19/03 A2976 RMK A01 T01930033  RH  035%=      5-min Rain = 0
KAM2 081830Z 27013KT 19/03 A2975 RMK A01 T01910033  RH  035%=      5-min Rain = 0
KAM2 081831Z 26010KT 19/03 A2975 RMK A01 T01900034  RH  036%=      5-min Rain = 0
KAM2 081832Z 25011KT 19/04 A2975 RMK A01 T01890035  RH  036%=      5-min Rain = 0
KAM2 081833Z 24013KT 19/04 A2975 RMK A01 T01870036  RH  036%=      5-min Rain = 0
KAM2 081834Z 25013KT 19/04 A2975 RMK A01 T01870036  RH  037%=      5-min Rain = 0
KAM2 081835Z 26012KT 19/04 A2976 RMK A01 T01860036  RH  037%=      5-min Rain = 0
KAM2 081836Z 25014KT 19/04 A2976 RMK A01 T01880036  RH  036%=      5-min Rain = 0
KAM2 081837Z 26014KT 19/04 A2976 RMK A01 T01890035  RH  036%=      5-min Rain = 0
KAM2 081838Z 24016KT 19/04 A2975 RMK A01 T01890035  RH  036%=      5-min Rain = 0
KAM2 081839Z 25016KT 19/04 A2975 RMK A01 T01890035  RH  036%=      5-min Rain = 0
KAM2 081840Z 25014KT 19/04 A2975 RMK A01 T01890035  RH  036%=      5-min Rain = 0
KAM2 081841Z 25014G19KT 19/04 A2975 RMK A01 T01890036  RH  036%=      5-min Rain = 0
KAM2 081842Z 25014KT 19/04 A2975 RMK A01 T01890037  RH  036%=      5-min Rain = 0
KAM2 081843Z 26011KT 19/04 A2975 RMK A01 T01890038  RH  037%=      5-min Rain = 0
KAM2 081844Z 27012KT 19/04 A2975 RMK A01 T01880037  RH  037%=      5-min Rain = 0
KAM2 081845Z 27012KT 19/04 A2975 RMK A01 T01880035  RH  036%=      5-min Rain = 0
KAM2 081846Z 27012KT 19/04 A2975 RMK A01 T01880035  RH  036%=      5-min Rain = 0
KAM2 081847Z 27011KT 19/04 A2975 RMK A01 T01910037  RH  036%=      5-min Rain = 0
KAM2 081848Z 26011G16KT 19/04 A2975 RMK A01 T01930038  RH  036%=      5-min Rain = 0
KAM2 081849Z 25013G18KT 20/04 A2975 RMK A01 T01950038  RH  035%=      5-min Rain = 0
KAM2 081850Z 26015KT 20/04 A2974 RMK A01 T01970037  RH  035%=      5-min Rain = 0
KAM2 081851Z 27013KT 20/04 A2974 RMK A01 T01970036  RH  034%=      5-min Rain = 0
KAM2 081852Z 26017KT 20/04 A2974 RMK A01 T01970037  RH  035%=      5-min Rain = 0
KAM2 081853Z 26014KT 20/04 A2975 RMK A01 T01960037  RH  035%=      5-min Rain = 0
KAM2 081854Z 27015KT 20/04 A2975 RMK A01 T01950037  RH  035%=      5-min Rain = 0
KAM2 081855Z 28012KT 19/04 A2974 RMK A01 T01930035  RH  035%=      5-min Rain = 0
KAM2 081856Z 28015G20KT 19/04 A2974 RMK A01 T01930035  RH  035%=      5-min Rain = 0
KAM2 081857Z 28017KT 20/04 A2974 RMK A01 T01950035  RH  035%=      5-min Rain = 0
KAM2 081858Z 27010G16KT 19/04 A2974 RMK A01 T01940035  RH  035%=      5-min Rain = 0
KAM2 081859Z 26013KT 20/04 A2974 RMK A01 T01960037  RH  035%=      5-min Rain = 0
KAM2 081900Z 26015G20KT 20/04 A2974 RMK A01 T01980036  RH  034%=      5-min Rain = 0
KAM2 081901Z 28016KT 20/04 A2974 RMK A01 T01990036  RH  034%=      5-min Rain = 0
KAM2 081902Z 26016KT 20/04 A2974 RMK A01 T01980036  RH  034%=      5-min Rain = 0
KAM2 081903Z 28013KT 20/04 A2974 RMK A01 T01970036  RH  035%=      5-min Rain = 0
KAM2 081904Z 27014KT 20/04 A2974 RMK A01 T01960037  RH  035%=      5-min Rain = 0
KAM2 081905Z 26015KT 20/04 A2974 RMK A01 T01970036  RH  034%=      5-min Rain = 0
KAM2 081906Z 28014KT 20/03 A2974 RMK A01 T01970034  RH  034%=      5-min Rain = 0
KAM2 081907Z 28011G16KT 20/04 A2974 RMK A01 T01970035  RH  034%=      5-min Rain = 0
KAM2 081908Z 29016KT 20/04 A2973 RMK A01 T01990036  RH  034%=      5-min Rain = 0
KAM2 081909Z 28017KT 20/04 A2973 RMK A01 T01990035  RH  034%=      5-min Rain = 0
KAM2 081910Z 28016KT 20/04 A2973 RMK A01 T01990035  RH  034%=      5-min Rain = 0
KAM2 081911Z 29013KT 20/04 A2973 RMK A01 T01980035  RH  034%=      5-min Rain = 0
KAM2 081912Z 28015G20KT 20/03 A2973 RMK A01 T01990034  RH  034%=      5-min Rain = 0
KAM2 081913Z 27015KT 20/03 A2973 RMK A01 T02000034  RH  033%=      5-min Rain = 0
KAM2 081914Z 27015KT 20/03 A2973 RMK A01 T02000032  RH  033%=      5-min Rain = 0
KAM2 081915Z 26015KT 20/03 A2973 RMK A01 T01990032  RH  033%=      5-min Rain = 0
KAM2 081916Z 28010G15KT 20/03 A2973 RMK A01 T01980033  RH  034%=      5-min Rain = 0
KAM2 081917Z 28012KT 20/04 A2973 RMK A01 T02000036  RH  034%=      5-min Rain = 0
KAM2 081918Z 27013KT 20/04 A2973 RMK A01 T02020035  RH  033%=      5-min Rain = 0
KAM2 081919Z 26016KT 20/03 A2973 RMK A01 T02020034  RH  033%=      5-min Rain = 0
KAM2 081920Z 25014KT 20/03 A2973 RMK A01 T02020032  RH  033%=      5-min Rain = 0
KAM2 081921Z 26014KT 20/03 A2973 RMK A01 T02010033  RH  033%=      5-min Rain = 0
KAM2 081922Z 25013KT 20/03 A2973 RMK A01 T02020032  RH  033%=      5-min Rain = 0
KAM2 081923Z 25015KT 20/03 A2973 RMK A01 T02020031  RH  032%=      5-min Rain = 0
KAM2 081924Z 25016KT 20/03 A2973 RMK A01 T02010031  RH  032%=      5-min Rain = 0
KAM2 081925Z 26013KT 20/03 A2973 RMK A01 T01990031  RH  033%=      5-min Rain = 0
KAM2 081926Z 26015KT 20/03 A2973 RMK A01 T01980031  RH  033%=      5-min Rain = 0
KAM2 081927Z 25013KT 20/03 A2973 RMK A01 T01980031  RH  033%=      5-min Rain = 0
KAM2 081928Z 26013KT 20/03 A2973 RMK A01 T01990031  RH  033%=      5-min Rain = 0
KAM2 081929Z 27011KT 20/03 A2973 RMK A01 T02000031  RH  033%=      5-min Rain = 0
KAM2 081930Z 27010KT 20/03 A2972 RMK A01 T01990030  RH  033%=      5-min Rain = 0
KAM2 081931Z 26011KT 20/03 A2972 RMK A01 T01990031  RH  033%=      5-min Rain = 0
KAM2 081932Z 27014KT 20/03 A2972 RMK A01 T02000030  RH  033%=      5-min Rain = 0
KAM2 081933Z 26013KT 20/03 A2972 RMK A01 T02000030  RH  032%=      5-min Rain = 0
KAM2 081934Z 27013KT 20/03 A2972 RMK A01 T02000030  RH  032%=      5-min Rain = 0
KAM2 081935Z 29014KT 20/03 A2972 RMK A01 T02000031  RH  032%=      5-min Rain = 0
KAM2 081936Z 28014KT 20/03 A2972 RMK A01 T02000031  RH  033%=      5-min Rain = 0
KAM2 081937Z 30013KT 20/03 A2972 RMK A01 T02000031  RH  033%=      5-min Rain = 0
KAM2 081938Z 29012KT 20/03 A2972 RMK A01 T02010031  RH  032%=      5-min Rain = 0
KAM2 081939Z 28009KT 20/03 A2972 RMK A01 T02010030  RH  032%=      5-min Rain = 0
KAM2 081940Z 28007KT 20/03 A2972 RMK A01 T02020032  RH  032%=      5-min Rain = 0
KAM2 081941Z 26010G15KT 21/03 A2972 RMK A01 T02060034  RH  032%=      5-min Rain = 0
KAM2 081942Z 26010KT 21/03 A2972 RMK A01 T02080033  RH  032%=      5-min Rain = 0
KAM2 081943Z 27010KT 21/03 A2972 RMK A01 T02090032  RH  031%=      5-min Rain = 0
KAM2 081944Z 25009KT 21/03 A2972 RMK A01 T02090032  RH  031%=      5-min Rain = 0
KAM2 081945Z 25010KT 21/03 A2972 RMK A01 T02080030  RH  031%=      5-min Rain = 0
KAM2 081946Z 24012KT 21/03 A2971 RMK A01 T02080028  RH  031%=      5-min Rain = 0
KAM2 081947Z 25013KT 21/02 A2971 RMK A01 T02060024  RH  030%=      5-min Rain = 0
KAM2 081948Z 26012KT 20/02 A2972 RMK A01 T02040024  RH  030%=      5-min Rain = 0
KAM2 081949Z 27014KT 20/03 A2971 RMK A01 T02030025  RH  031%=      5-min Rain = 0
KAM2 081950Z 27014KT 20/03 A2971 RMK A01 T02040026  RH  031%=      5-min Rain = 0
KAM2 081951Z 28015KT 20/03 A2971 RMK A01 T02040026  RH  031%=      5-min Rain = 0
KAM2 081952Z 28012KT 20/02 A2971 RMK A01 T02030024  RH  031%=      5-min Rain = 0
KAM2 081953Z 27014KT 20/02 A2971 RMK A01 T02030020  RH  030%=      5-min Rain = 0
KAM2 081954Z 26011KT 20/02 A2971 RMK A01 T02030019  RH  029%=      5-min Rain = 0
KAM2 081955Z 27012KT 21/03 A2971 RMK A01 T02050026  RH  030%=      5-min Rain = 0
KAM2 081956Z 27011KT 21/03 A2971 RMK A01 T02060028  RH  031%=      5-min Rain = 0
KAM2 081957Z 27007KT 21/03 A2971 RMK A01 T02050028  RH  031%=      5-min Rain = 0
KAM2 081958Z 28009KT 21/03 A2971 RMK A01 T02050030  RH  032%=      5-min Rain = 0
KAM2 081959Z 28011KT 21/03 A2971 RMK A01 T02060030  RH  031%=      5-min Rain = 0
KAM2 082000Z 25007KT 21/03 A2971 RMK A01 T02070030  RH  031%=      5-min Rain = 0
KAM2 082001Z 26007KT 21/03 A2971 RMK A01 T02080029  RH  031%=      5-min Rain = 0
KAM2 082002Z 27011KT 21/03 A2971 RMK A01 T02100029  RH  030%=      5-min Rain = 0
KAM2 082003Z 26008KT 21/03 A2971 RMK A01 T02120029  RH  030%=      5-min Rain = 0
KAM2 082004Z 27012G17KT 21/03 A2971 RMK A01 T02130029  RH  030%=      5-min Rain = 0
KAM2 082005Z 26008KT 21/03 A2971 RMK A01 T02130027  RH  029%=      5-min Rain = 0
KAM2 082006Z 27009G14KT 21/03 A2971 RMK A01 T02130029  RH  030%=      5-min Rain = 0
KAM2 082007Z 26010KT 21/03 A2971 RMK A01 T02130029  RH  030%=      5-min Rain = 0
KAM2 082008Z 26013KT 21/03 A2971 RMK A01 T02140029  RH  030%=      5-min Rain = 0
KAM2 082009Z 27011KT 21/03 A2971 RMK A01 T02140030  RH  030%=      5-min Rain = 0
KAM2 082010Z 26014G22KT 21/03 A2971 RMK A01 T02140031  RH  030%=      5-min Rain = 0
KAM2 082011Z 26016KT 22/03 A2971 RMK A01 T02150033  RH  030%=      5-min Rain = 0
KAM2 082012Z 25012G17KT 22/04 A2971 RMK A01 T02150035  RH  030%=      5-min Rain = 0
KAM2 082013Z 26014KT 22/03 A2971 RMK A01 T02150034  RH  030%=      5-min Rain = 0
KAM2 082014Z 26015G20KT 21/03 A2971 RMK A01 T02130033  RH  031%=      5-min Rain = 0
KAM2 082015Z 24016KT 21/04 A2971 RMK A01 T02120035  RH  031%=      5-min Rain = 0
KAM2 082016Z 24015KT 21/04 A2971 RMK A01 T02110036  RH  031%=      5-min Rain = 0
KAM2 082017Z 25014KT 21/04 A2971 RMK A01 T02120036  RH  031%=      5-min Rain = 0
KAM2 082018Z 25015KT 21/04 A2971 RMK A01 T02110037  RH  032%=      5-min Rain = 0
KAM2 082019Z 24016KT 21/04 A297 RMK A01 T02110038  RH  032%=      5-min Rain = 0
KAM2 082020Z 25016KT 21/04 A297 RMK A01 T02100037  RH  032%=      5-min Rain = 0
KAM2 082021Z 25017KT 21/04 A297 RMK A01 T02090036  RH  032%=      5-min Rain = 0
KAM2 082022Z 25017G22KT 21/04 A297 RMK A01 T02090035  RH  032%=      5-min Rain = 0
KAM2 082023Z 24020G25KT 21/04 A297 RMK A01 T02090035  RH  032%=      5-min Rain = 0
KAM2 082024Z 26019KT 21/03 A297 RMK A01 T02090034  RH  031%=      5-min Rain = 0
KAM2 082025Z 26014KT 21/03 A297 RMK A01 T02090034  RH  032%=      5-min Rain = 0
KAM2 082026Z 26016G21KT 21/04 A297 RMK A01 T02090035  RH  032%=      5-min Rain = 0
KAM2 082027Z 26015G20KT 21/04 A297 RMK A01 T02080035  RH  032%=      5-min Rain = 0
KAM2 082028Z 26015KT 21/04 A297 RMK A01 T02080035  RH  032%=      5-min Rain = 0
KAM2 082029Z 26021KT 21/04 A297 RMK A01 T02080035  RH  032%=      5-min Rain = 0
KAM2 082030Z 26019KT 21/03 A297 RMK A01 T02080034  RH  032%=      5-min Rain = 0
KAM2 082031Z 25018G23KT 21/03 A297 RMK A01 T02070034  RH  032%=      5-min Rain = 0
KAM2 082032Z 26018KT 21/04 A297 RMK A01 T02070035  RH  032%=      5-min Rain = 0
KAM2 082033Z 26014KT 21/04 A297 RMK A01 T02070035  RH  032%=      5-min Rain = 0
KAM2 082034Z 25015KT 21/04 A297 RMK A01 T02070035  RH  032%=      5-min Rain = 0
KAM2 082035Z 26017G22KT 21/04 A297 RMK A01 T02080035  RH  032%=      5-min Rain = 0
KAM2 082036Z 25014KT 21/04 A297 RMK A01 T02080037  RH  032%=      5-min Rain = 0
KAM2 082037Z 25015G21KT 21/04 A297 RMK A01 T02080038  RH  032%=      5-min Rain = 0
KAM2 082038Z 25018KT 21/04 A297 RMK A01 T02090037  RH  032%=      5-min Rain = 0
KAM2 082039Z 25019KT 21/04 A297 RMK A01 T02080038  RH  033%=      5-min Rain = 0
KAM2 082040Z 25015G21KT 21/04 A297 RMK A01 T02070038  RH  033%=      5-min Rain = 0
KAM2 082041Z 25018KT 21/04 A297 RMK A01 T02070039  RH  033%=      5-min Rain = 0
KAM2 082042Z 25017G22KT 21/04 A297 RMK A01 T02060038  RH  033%=      5-min Rain = 0
KAM2 082043Z 25016G21KT 21/04 A297 RMK A01 T02060038  RH  033%=      5-min Rain = 0
KAM2 082044Z 25017G23KT 21/04 A297 RMK A01 T02060038  RH  033%=      5-min Rain = 0
KAM2 082045Z 25018G24KT 21/04 A2969 RMK A01 T02060037  RH  033%=      5-min Rain = 0
KAM2 082046Z 25019KT 21/04 A2969 RMK A01 T02060037  RH  033%=      5-min Rain = 0
KAM2 082047Z 26017KT 21/04 A2969 RMK A01 T02060036  RH  033%=      5-min Rain = 0
KAM2 082048Z 25019KT 21/04 A2969 RMK A01 T02060037  RH  033%=      5-min Rain = 0
KAM2 082049Z 25016G22KT 21/04 A2969 RMK A01 T02060037  RH  033%=      5-min Rain = 0
KAM2 082050Z 25019KT 21/04 A2969 RMK A01 T02070037  RH  033%=      5-min Rain = 0
KAM2 082051Z 25020KT 21/04 A2969 RMK A01 T02070037  RH  032%=      5-min Rain = 0
KAM2 082052Z 25019KT 21/04 A2969 RMK A01 T02050036  RH  033%=      5-min Rain = 0
KAM2 082053Z 25017KT 21/04 A2969 RMK A01 T02050036  RH  033%=      5-min Rain = 0
KAM2 082054Z 24013G18KT 21/04 A2969 RMK A01 T02060037  RH  033%=      5-min Rain = 0
KAM2 082055Z 24015G21KT 21/04 A2969 RMK A01 T02070038  RH  033%=      5-min Rain = 0
KAM2 082056Z 24018G23KT 21/04 A2969 RMK A01 T02080037  RH  032%=      5-min Rain = 0
KAM2 082057Z 24019G25KT 21/04 A2969 RMK A01 T02090037  RH  032%=      5-min Rain = 0
KAM2 082058Z 26021G28KT 21/04 A2969 RMK A01 T02090037  RH  032%=      5-min Rain = 0
KAM2 082059Z 25021KT 21/04 A2969 RMK A01 T02090037  RH  032%=      5-min Rain = 0
KAM2 082100Z 26018KT 21/04 A2969 RMK A01 T02090035  RH  032%=      5-min Rain = 0
KAM2 082101Z 25017G23KT 21/04 A2969 RMK A01 T02080035  RH  032%=      5-min Rain = 0
KAM2 082102Z 25015KT 21/04 A2969 RMK A01 T02090036  RH  032%=      5-min Rain = 0
KAM2 082103Z 26019G25KT 21/04 A2969 RMK A01 T02100035  RH  032%=      5-min Rain = 0
KAM2 082104Z 26019G26KT 21/03 A2969 RMK A01 T02110034  RH  031%=      5-min Rain = 0
KAM2 082105Z 26019G24KT 21/03 A2969 RMK A01 T02100034  RH  031%=      5-min Rain = 0
KAM2 082106Z 26017G22KT 21/03 A2969 RMK A01 T02100033  RH  031%=      5-min Rain = 0
KAM2 082107Z 26018G23KT 21/03 A2969 RMK A01 T02120034  RH  031%=      5-min Rain = 0
KAM2 082108Z 26021G28KT 21/03 A2969 RMK A01 T02120033  RH  031%=      5-min Rain = 0
KAM2 082109Z 26017G24KT 21/03 A2969 RMK A01 T02110033  RH  031%=      5-min Rain = 0
KAM2 082110Z 26022KT 21/03 A2969 RMK A01 T02100033  RH  031%=      5-min Rain = 0
KAM2 082111Z 26022KT 21/03 A2968 RMK A01 T02090032  RH  031%=      5-min Rain = 0
KAM2 082112Z 26021G28KT 21/03 A2968 RMK A01 T02080032  RH  031%=      5-min Rain = 0
KAM2 082113Z 27016KT 21/03 A2968 RMK A01 T02070032  RH  031%=      5-min Rain = 0
KAM2 082114Z 27018G25KT 21/03 A2968 RMK A01 T02070032  RH  031%=      5-min Rain = 0
KAM2 082115Z 27014G22KT 21/03 A2968 RMK A01 T02080032  RH  031%=      5-min Rain = 0
KAM2 082116Z 26015G22KT 21/03 A2968 RMK A01 T02100034  RH  031%=      5-min Rain = 0
KAM2 082117Z 26016G22KT 21/03 A2968 RMK A01 T02110034  RH  031%=      5-min Rain = 0
KAM2 082118Z 26017KT 21/03 A2969 RMK A01 T02120034  RH  031%=      5-min Rain = 0
KAM2 082119Z 25017G23KT 21/03 A2969 RMK A01 T02130034  RH  031%=      5-min Rain = 0
KAM2 082120Z 25020G25KT 21/03 A2968 RMK A01 T02130034  RH  031%=      5-min Rain = 0
KAM2 082121Z 24022G28KT 21/03 A2968 RMK A01 T02130032  RH  030%=      5-min Rain = 0
KAM2 082122Z 24022KT 21/03 A2968 RMK A01 T02130031  RH  030%=      5-min Rain = 0
KAM2 082123Z 24022G27KT 21/03 A2968 RMK A01 T02110030  RH  030%=      5-min Rain = 0
KAM2 082124Z 24021G27KT 21/03 A2968 RMK A01 T02100031  RH  031%=      5-min Rain = 0
KAM2 082125Z 24020G26KT 21/03 A2968 RMK A01 T02080030  RH  031%=      5-min Rain = 0
KAM2 082126Z 24020G25KT 21/03 A2968 RMK A01 T02080030  RH  031%=      5-min Rain = 0
KAM2 082127Z 25015G22KT 21/03 A2968 RMK A01 T02080030  RH  031%=      5-min Rain = 0
KAM2 082128Z 25016G23KT 21/03 A2968 RMK A01 T02070030  RH  031%=      5-min Rain = 0
KAM2 082129Z 25020G25KT 21/03 A2968 RMK A01 T02080031  RH  031%=      5-min Rain = 0
KAM2 082130Z 25020KT 21/03 A2968 RMK A01 T02070032  RH  031%=      5-min Rain = 0
KAM2 082131Z 25019KT 21/03 A2968 RMK A01 T02060031  RH  032%=      5-min Rain = 0
KAM2 082132Z 25022G28KT 21/03 A2968 RMK A01 T02050031  RH  032%=      5-min Rain = 0
KAM2 082133Z 25020G25KT 21/03 A2968 RMK A01 T02050031  RH  032%=      5-min Rain = 0
KAM2 082134Z 25019G26KT 21/03 A2968 RMK A01 T02050031  RH  032%=      5-min Rain = 0
KAM2 082135Z 25022G28KT 21/03 A2968 RMK A01 T02050031  RH  032%=      5-min Rain = 0
KAM2 082136Z 26018G23KT 21/03 A2968 RMK A01 T02050031  RH  032%=      5-min Rain = 0
KAM2 082137Z 26019G24KT 21/03 A2968 RMK A01 T02050031  RH  032%=      5-min Rain = 0
KAM2 082138Z 26023KT 21/03 A2968 RMK A01 T02050031  RH  032%=      5-min Rain = 0
KAM2 082139Z 26020G28KT 21/03 A2968 RMK A01 T02050031  RH  032%=      5-min Rain = 0
KAM2 082140Z 25025KT 21/03 A2968 RMK A01 T02050031  RH  032%=      5-min Rain = 0
KAM2 082141Z 25024KT 21/03 A2968 RMK A01 T02050031  RH  032%=      5-min Rain = 0
KAM2 082142Z 25021KT 21/03 A2968 RMK A01 T02050032  RH  032%=      5-min Rain = 0
KAM2 082143Z 25021G27KT 21/03 A2968 RMK A01 T02050032  RH  032%=      5-min Rain = 0
KAM2 082144Z 25024KT 21/03 A2968 RMK A01 T02050032  RH  032%=      5-min Rain = 0
KAM2 082145Z 25022G27KT 21/03 A2968 RMK A01 T02050031  RH  032%=      5-min Rain = 0
KAM2 082146Z 26021G27KT 20/03 A2968 RMK A01 T02040031  RH  032%=      5-min Rain = 0
KAM2 082147Z 25019G31KT 20/03 A2968 RMK A01 T02040031  RH  032%=      5-min Rain = 0
KAM2 082148Z 25025G32KT 21/03 A2968 RMK A01 T02050031  RH  032%=      5-min Rain = 0
KAM2 082149Z 26022KT 20/03 A2968 RMK A01 T02040031  RH  032%=      5-min Rain = 0
KAM2 082150Z 25025G32KT 20/03 A2968 RMK A01 T02030031  RH  032%=      5-min Rain = 0
KAM2 082151Z 26017G22KT 20/03 A2968 RMK A01 T02020031  RH  032%=      5-min Rain = 0
KAM2 082152Z 25021G28KT 20/03 A2968 RMK A01 T02010031  RH  033%=      5-min Rain = 0
KAM2 082153Z 26020G28KT 20/03 A2968 RMK A01 T02010032  RH  033%=      5-min Rain = 0
KAM2 082154Z 27023G31KT 20/03 A2968 RMK A01 T02000031  RH  033%=      5-min Rain = 0
KAM2 082155Z 27022G27KT 20/03 A2968 RMK A01 T01990031  RH  033%=      5-min Rain = 0
KAM2 082156Z 26023G30KT 20/03 A2968 RMK A01 T01980031  RH  033%=      5-min Rain = 0
KAM2 082157Z 26023G28KT 20/03 A2968 RMK A01 T01970031  RH  033%=      5-min Rain = 0
KAM2 082158Z 26022KT 20/03 A2968 RMK A01 T01960031  RH  033%=      5-min Rain = 0
KAM2 082159Z 26023G28KT 20/03 A2968 RMK A01 T01960031  RH  034%=      5-min Rain = 0
KAM2 082200Z 26023G30KT 20/03 A2968 RMK A01 T01960031  RH  033%=      5-min Rain = 0
KAM2 082201Z 26022KT 20/03 A2968 RMK A01 T01960030  RH  033%=      5-min Rain = 0
KAM2 082202Z 25019G26KT 20/03 A2968 RMK A01 T01960030  RH  033%=      5-min Rain = 0
KAM2 082203Z 26024KT 20/03 A2968 RMK A01 T01960029  RH  033%=      5-min Rain = 0
KAM2 082204Z 26023G31KT 20/03 A2968 RMK A01 T01950029  RH  033%=      5-min Rain = 0
KAM2 082205Z 25026G31KT 20/03 A2968 RMK A01 T01950028  RH  033%=      5-min Rain = 0
KAM2 082206Z 26023G29KT 19/03 A2968 RMK A01 T01940028  RH  033%=      5-min Rain = 0
KAM2 082207Z 26016KT 19/03 A2968 RMK A01 T01940029  RH  033%=      5-min Rain = 0
KAM2 082208Z 26021G27KT 19/03 A2968 RMK A01 T01930029  RH  034%=      5-min Rain = 0
KAM2 082209Z 26023KT 19/03 A2968 RMK A01 T01930028  RH  034%=      5-min Rain = 0
KAM2 082210Z 25020G25KT 19/03 A2968 RMK A01 T01920028  RH  034%=      5-min Rain = 0
KAM2 082211Z 26017G23KT 19/03 A2968 RMK A01 T01920029  RH  034%=      5-min Rain = 0
KAM2 082212Z 25016G21KT 19/03 A2968 RMK A01 T01920029  RH  034%=      5-min Rain = 0
KAM2 082213Z 25014G21KT 19/03 A2968 RMK A01 T01920029  RH  034%=      5-min Rain = 0
KAM2 082214Z 25021KT 19/03 A2968 RMK A01 T01920028  RH  034%=      5-min Rain = 0
KAM2 082215Z 25021KT 19/03 A2968 RMK A01 T01920026  RH  033%=      5-min Rain = 0
KAM2 082216Z 26021G28KT 19/03 A2968 RMK A01 T01930026  RH  033%=      5-min Rain = 0
KAM2 082217Z 26019G27KT 19/03 A2968 RMK A01 T01940025  RH  033%=      5-min Rain = 0
KAM2 082218Z 26018G26KT 20/03 A2968 RMK A01 T01960025  RH  032%=      5-min Rain = 0
KAM2 082219Z 26022G27KT 20/03 A2968 RMK A01 T01970025  RH  032%=      5-min Rain = 0
KAM2 082220Z 26022G31KT 20/02 A2968 RMK A01 T01970024  RH  032%=      5-min Rain = 0
KAM2 082221Z 26023G28KT 20/02 A2968 RMK A01 T01970024  RH  032%=      5-min Rain = 0
KAM2 082222Z 26023KT 20/02 A2968 RMK A01 T01960024  RH  032%=      5-min Rain = 0
KAM2 082223Z 26022G27KT 20/02 A2968 RMK A01 T01950024  RH  032%=      5-min Rain = 0
KAM2 082224Z 27021KT 20/02 A2968 RMK A01 T01950024  RH  032%=      5-min Rain = 0
KAM2 082225Z 27023G28KT 20/02 A2968 RMK A01 T01950024  RH  032%=      5-min Rain = 0
KAM2 082226Z 27019G26KT 20/02 A2968 RMK A01 T01950024  RH  032%=      5-min Rain = 0
KAM2 082227Z 26017KT 20/02 A2968 RMK A01 T01950024  RH  032%=      5-min Rain = 0
KAM2 082228Z 26021G26KT 20/03 A2968 RMK A01 T01950025  RH  032%=      5-min Rain = 0
KAM2 082229Z 26020KT 20/03 A2968 RMK A01 T01950025  RH  032%=      5-min Rain = 0
KAM2 082230Z 26019KT 20/02 A2968 RMK A01 T01950024  RH  032%=      5-min Rain = 0
KAM2 082231Z 26016G21KT 20/03 A2968 RMK A01 T01950025  RH  032%=      5-min Rain = 0
KAM2 082232Z 25016G24KT 20/03 A2969 RMK A01 T01950025  RH  032%=      5-min Rain = 0
KAM2 082233Z 25018KT 20/03 A2969 RMK A01 T01950025  RH  032%=      5-min Rain = 0
KAM2 082234Z 25020G30KT 20/03 A2969 RMK A01 T01950025  RH  032%=      5-min Rain = 0
KAM2 082235Z 25020G26KT 20/03 A2969 RMK A01 T01950025  RH  032%=      5-min Rain = 0
KAM2 082236Z 25021G30KT 19/03 A2969 RMK A01 T01940025  RH  032%=      5-min Rain = 0
KAM2 082237Z 25022KT 19/03 A2969 RMK A01 T01930025  RH  033%=      5-min Rain = 0
KAM2 082238Z 26018G23KT 19/03 A2969 RMK A01 T01930025  RH  033%=      5-min Rain = 0
KAM2 082239Z 26019G24KT 19/03 A297 RMK A01 T01920025  RH  033%=      5-min Rain = 0
KAM2 082240Z 26017G25KT 19/03 A297 RMK A01 T01910025  RH  033%=      5-min Rain = 0
KAM2 082241Z 25019G24KT 19/03 A297 RMK A01 T01900025  RH  033%=      5-min Rain = 0
KAM2 082242Z 25018KT 19/03 A297 RMK A01 T01900026  RH  034%=      5-min Rain = 0
KAM2 082243Z 26017G22KT 19/03 A2969 RMK A01 T01890026  RH  034%=      5-min Rain = 0
KAM2 082244Z 26015KT 19/03 A2969 RMK A01 T01890026  RH  034%=      5-min Rain = 0
KAM2 082245Z 25016KT 19/03 A2969 RMK A01 T01880027  RH  034%=      5-min Rain = 0
KAM2 082246Z 26014KT 19/03 A2969 RMK A01 T01870027  RH  034%=      5-min Rain = 0
KAM2 082247Z 25016G21KT 19/03 A2969 RMK A01 T01870027  RH  035%=      5-min Rain = 0
KAM2 082248Z 26016KT 19/03 A2969 RMK A01 T01860027  RH  035%=      5-min Rain = 0
KAM2 082249Z 26015G21KT 19/03 A2969 RMK A01 T01860027  RH  035%=      5-min Rain = 0
KAM2 082250Z 26015KT 19/03 A2969 RMK A01 T01860027  RH  035%=      5-min Rain = 0
KAM2 082251Z 25013KT 19/03 A2969 RMK A01 T01850027  RH  035%=      5-min Rain = 0
KAM2 082252Z 25017G22KT 19/03 A2969 RMK A01 T01850028  RH  035%=      5-min Rain = 0
KAM2 082253Z 25016KT 19/03 A2969 RMK A01 T01850028  RH  035%=      5-min Rain = 0
KAM2 082254Z 25018G26KT 18/03 A2969 RMK A01 T01840028  RH  035%=      5-min Rain = 0
KAM2 082255Z 26019G28KT 18/03 A2969 RMK A01 T01840028  RH  035%=      5-min Rain = 0
KAM2 082256Z 25017KT 19/03 A2969 RMK A01 T01850027  RH  035%=      5-min Rain = 0
KAM2 082257Z 25018G27KT 18/03 A297 RMK A01 T01840028  RH  035%=      5-min Rain = 0
KAM2 082258Z 25021G26KT 18/03 A2969 RMK A01 T01830028  RH  035%=      5-min Rain = 0
KAM2 082259Z 25021KT 18/03 A297 RMK A01 T01830027  RH  035%=      5-min Rain = 0
KAM2 082300Z 26018KT 18/03 A2969 RMK A01 T01830027  RH  035%=      5-min Rain = 0
KAM2 082301Z 26019KT 18/03 A2969 RMK A01 T01820027  RH  036%=      5-min Rain = 0
KAM2 082302Z 26017KT 18/03 A2969 RMK A01 T01820027  RH  036%=      5-min Rain = 0
KAM2 082303Z 26016KT 18/03 A2969 RMK A01 T01810027  RH  036%=      5-min Rain = 0
KAM2 082304Z 25015KT 18/03 A2969 RMK A01 T01790027  RH  036%=      5-min Rain = 0
KAM2 082305Z 25017KT 18/03 A2969 RMK A01 T01780027  RH  036%=      5-min Rain = 0
KAM2 082306Z 26017KT 18/03 A2969 RMK A01 T01780027  RH  036%=      5-min Rain = 0
KAM2 082307Z 25015KT 18/03 A2969 RMK A01 T01780027  RH  036%=      5-min Rain = 0
KAM2 082308Z 25019G25KT 18/03 A2969 RMK A01 T01780028  RH  037%=      5-min Rain = 0
KAM2 082309Z 25021KT 18/03 A2969 RMK A01 T01780027  RH  036%=      5-min Rain = 0
KAM2 082310Z 25017G23KT 18/03 A2969 RMK A01 T01790028  RH  036%=      5-min Rain = 0
KAM2 082311Z 25017KT 18/03 A297 RMK A01 T01780028  RH  037%=      5-min Rain = 0
KAM2 082312Z 25017G22KT 18/03 A297 RMK A01 T01770028  RH  037%=      5-min Rain = 0
KAM2 082313Z 25016KT 18/03 A297 RMK A01 T01770028  RH  037%=      5-min Rain = 0
KAM2 082314Z 25013KT 18/03 A2969 RMK A01 T01760028  RH  037%=      5-min Rain = 0
KAM2 082315Z 25012G18KT 18/03 A2969 RMK A01 T01750028  RH  037%=      5-min Rain = 0
KAM2 082316Z 25013KT 17/03 A2969 RMK A01 T01740028  RH  038%=      5-min Rain = 0
KAM2 082317Z 25013KT 17/03 A2969 RMK A01 T01740029  RH  038%=      5-min Rain = 0
KAM2 082318Z 25013KT 17/03 A2969 RMK A01 T01740029  RH  038%=      5-min Rain = 0
KAM2 082319Z 24013KT 17/03 A2969 RMK A01 T01730029  RH  038%=      5-min Rain = 0
KAM2 082320Z 25011KT 17/03 A2969 RMK A01 T01730029  RH  038%=      5-min Rain = 0
KAM2 082321Z 24014KT 17/03 A2969 RMK A01 T01720029  RH  038%=      5-min Rain = 0
KAM2 082322Z 24013G18KT 17/03 A2969 RMK A01 T01720030  RH  039%=      5-min Rain = 0
KAM2 082323Z 24012G19KT 17/03 A2969 RMK A01 T01710030  RH  039%=      5-min Rain = 0
KAM2 082324Z 24013KT 17/03 A2969 RMK A01 T01710030  RH  039%=      5-min Rain = 0
KAM2 082325Z 24013KT 17/03 A2969 RMK A01 T01710030  RH  039%=      5-min Rain = 0
KAM2 082326Z 25013G18KT 17/03 A2969 RMK A01 T01700030  RH  039%=      5-min Rain = 0
KAM2 082327Z 25015G20KT 17/03 A2969 RMK A01 T01700030  RH  039%=      5-min Rain = 0
KAM2 082328Z 25015KT 17/03 A2969 RMK A01 T01700030  RH  039%=      5-min Rain = 0
KAM2 082329Z 25015KT 17/03 A2969 RMK A01 T01700030  RH  039%=      5-min Rain = 0
KAM2 082330Z 24013G19KT 17/03 A2969 RMK A01 T01700030  RH  039%=      5-min Rain = 0
KAM2 082331Z 25015KT 17/03 A2969 RMK A01 T01700030  RH  039%=      5-min Rain = 0
KAM2 082332Z 25017KT 17/03 A2969 RMK A01 T01700030  RH  039%=      5-min Rain = 0
KAM2 082333Z 25013G18KT 17/03 A297 RMK A01 T01700029  RH  039%=      5-min Rain = 0
KAM2 082334Z 25015G21KT 17/03 A297 RMK A01 T01690029  RH  039%=      5-min Rain = 0
KAM2 082335Z 25015KT 17/03 A297 RMK A01 T01690029  RH  039%=      5-min Rain = 0
KAM2 082336Z 25014G20KT 17/03 A2969 RMK A01 T01690028  RH  039%=      5-min Rain = 0
KAM2 082337Z 25012G18KT 17/03 A2969 RMK A01 T01680028  RH  039%=      5-min Rain = 0
KAM2 082338Z 25019KT 17/03 A2969 RMK A01 T01680028  RH  039%=      5-min Rain = 0
KAM2 082339Z 25016G21KT 17/03 A2969 RMK A01 T01680027  RH  039%=      5-min Rain = 0
KAM2 082340Z 25020KT 17/03 A2969 RMK A01 T01680027  RH  039%=      5-min Rain = 0
KAM2 082341Z 25018KT 17/03 A2969 RMK A01 T01680027  RH  039%=      5-min Rain = 0
KAM2 082342Z 25018KT 17/03 A2969 RMK A01 T01680027  RH  039%=      5-min Rain = 0
KAM2 082343Z 25020G25KT 17/03 A2969 RMK A01 T01680027  RH  039%=      5-min Rain = 0
KAM2 082344Z 25019G27KT 17/03 A2969 RMK A01 T01680027  RH  039%=      5-min Rain = 0
KAM2 082345Z 25020G25KT 17/03 A2969 RMK A01 T01680027  RH  039%=      5-min Rain = 0
KAM2 082346Z 24019G26KT 17/03 A297 RMK A01 T01670026  RH  039%=      5-min Rain = 0
KAM2 082347Z 25017G22KT 17/03 A297 RMK A01 T01670026  RH  039%=      5-min Rain = 0
KAM2 082348Z 25020KT 17/03 A297 RMK A01 T01670026  RH  039%=      5-min Rain = 0
KAM2 082349Z 25019G27KT 17/03 A297 RMK A01 T01660026  RH  039%=      5-min Rain = 0
KAM2 082350Z 25022KT 17/03 A297 RMK A01 T01660026  RH  039%=      5-min Rain = 0
KAM2 082351Z 25019G24KT 17/03 A297 RMK A01 T01660025  RH  039%=      5-min Rain = 0
KAM2 082352Z 25017G23KT 17/03 A297 RMK A01 T01660026  RH  039%=      5-min Rain = 0
KAM2 082353Z 25019G24KT 17/03 A297 RMK A01 T01660025  RH  039%=      5-min Rain = 0
KAM2 082354Z 26017KT 17/03 A297 RMK A01 T01650025  RH  039%=      5-min Rain = 0
KAM2 082355Z 24017G23KT 17/03 A297 RMK A01 T01650025  RH  039%=      5-min Rain = 0
KAM2 082356Z 25019KT 16/03 A297 RMK A01 T01640025  RH  039%=      5-min Rain = 0
KAM2 082357Z 25016G22KT 16/03 A297 RMK A01 T01640025  RH  039%=      5-min Rain = 0
KAM2 082358Z 25020G26KT 16/03 A297 RMK A01 T01640025  RH  039%=      5-min Rain = 0
KAM2 082359Z 24015G20KT 16/03 A297 RMK A01 T01640025  RH  039%=      5-min Rain = 0
KAM2 090000Z 25019G28KT 16/03 A297 RMK A01 T01630025  RH  039%=      5-min Rain = 0
KAM2 090001Z 25019G26KT 16/03 A297 RMK A01 T01630025  RH  039%=      5-min Rain = 0
KAM2 090002Z 24020G25KT 16/03 A297 RMK A01 T01630025  RH  039%=      5-min Rain = 0
KAM2 090003Z 25021G28KT 16/02 A297 RMK A01 T01640024  RH  039%=      5-min Rain = 0
KAM2 090004Z 25020G26KT 16/02 A297 RMK A01 T01640024  RH  039%=      5-min Rain = 0
KAM2 090005Z 24023G31KT 16/02 A297 RMK A01 T01640024  RH  039%=      5-min Rain = 0
KAM2 090006Z 25023G28KT 17/02 A297 RMK A01 T01650024  RH  039%=      5-min Rain = 0
KAM2 090007Z 25024G32KT 17/02 A2969 RMK A01 T01650024  RH  039%=      5-min Rain = 0
KAM2 090008Z 24019G26KT 17/02 A297 RMK A01 T01650023  RH  039%=      5-min Rain = 0
KAM2 090009Z 25016G22KT 16/02 A297 RMK A01 T01640024  RH  039%=      5-min Rain = 0
KAM2 090010Z 24017G22KT 16/02 A2969 RMK A01 T01630024  RH  039%=      5-min Rain = 0
KAM2 090011Z 25021G26KT 16/02 A2969 RMK A01 T01620023  RH  039%=      5-min Rain = 0
KAM2 090012Z 25018G26KT 16/02 A2969 RMK A01 T01620023  RH  039%=      5-min Rain = 0
KAM2 090013Z 25020KT 16/02 A2969 RMK A01 T01620023  RH  039%=      5-min Rain = 0
KAM2 090014Z 24015G27KT 16/02 A2969 RMK A01 T01620023  RH  039%=      5-min Rain = 0
KAM2 090015Z 24020G25KT 16/02 A2969 RMK A01 T01610023  RH  039%=      5-min Rain = 0
KAM2 090016Z 25021G27KT 16/02 A297 RMK A01 T01610023  RH  039%=      5-min Rain = 0
KAM2 090017Z 25021G26KT 16/02 A297 RMK A01 T01620023  RH  039%=      5-min Rain = 0
KAM2 090018Z 24019KT 16/02 A297 RMK A01 T01610023  RH  039%=      5-min Rain = 0
KAM2 090019Z 25019G25KT 16/02 A297 RMK A01 T01610023  RH  039%=      5-min Rain = 0
KAM2 090020Z 25019G24KT 16/02 A297 RMK A01 T01610023  RH  039%=      5-min Rain = 0
KAM2 090021Z 25018G23KT 16/02 A297 RMK A01 T01610023  RH  039%=      5-min Rain = 0
KAM2 090022Z 25016G21KT 16/02 A297 RMK A01 T01600023  RH  040%=      5-min Rain = 0
KAM2 090023Z 25018G23KT 16/02 A297 RMK A01 T01600023  RH  040%=      5-min Rain = 0
KAM2 090024Z 25019KT 16/02 A297 RMK A01 T01600023  RH  040%=      5-min Rain = 0
KAM2 090025Z 25018G25KT 16/02 A2971 RMK A01 T01590023  RH  040%=      5-min Rain = 0
KAM2 090026Z 24021KT 16/02 A297 RMK A01 T01590023  RH  040%=      5-min Rain = 0
KAM2 090027Z 25019KT 16/02 A2971 RMK A01 T01590023  RH  040%=      5-min Rain = 0
KAM2 090028Z 25019KT 16/02 A2971 RMK A01 T01590024  RH  040%=      5-min Rain = 0
KAM2 090029Z 25020G25KT 16/02 A2971 RMK A01 T01590024  RH  040%=      5-min Rain = 0
KAM2 090030Z 25017G23KT 16/02 A2971 RMK A01 T01590024  RH  040%=      5-min Rain = 0
KAM2 090031Z 24019G24KT 16/02 A297 RMK A01 T01580024  RH  040%=      5-min Rain = 0
KAM2 090032Z 24018KT 16/02 A297 RMK A01 T01580024  RH  040%=      5-min Rain = 0
KAM2 090033Z 24022G33KT 16/02 A297 RMK A01 T01580024  RH  040%=      5-min Rain = 0
KAM2 090034Z 24018G25KT 16/02 A297 RMK A01 T01580024  RH  040%=      5-min Rain = 0
KAM2 090035Z 25021G26KT 16/02 A297 RMK A01 T01580024  RH  040%=      5-min Rain = 0
KAM2 090036Z 24017G24KT 16/02 A297 RMK A01 T01580024  RH  041%=      5-min Rain = 0
KAM2 090037Z 24020G26KT 16/02 A297 RMK A01 T01570024  RH  041%=      5-min Rain = 0
KAM2 090038Z 24020G25KT 16/02 A297 RMK A01 T01570024  RH  041%=      5-min Rain = 0
KAM2 090039Z 24018KT 16/02 A297 RMK A01 T01560024  RH  041%=      5-min Rain = 0
KAM2 090040Z 24016G23KT 16/02 A2969 RMK A01 T01560024  RH  041%=      5-min Rain = 0
KAM2 090041Z 24023G31KT 16/02 A2969 RMK A01 T01550024  RH  041%=      5-min Rain = 0
KAM2 090042Z 23020KT 16/03 A2969 RMK A01 T01560025  RH  041%=      5-min Rain = 0
KAM2 090043Z 24021G26KT 16/02 A2969 RMK A01 T01560024  RH  041%=      5-min Rain = 0
KAM2 090044Z 24021KT 16/02 A2969 RMK A01 T01560024  RH  041%=      5-min Rain = 0
KAM2 090045Z 24019G25KT 16/02 A2969 RMK A01 T01560024  RH  041%=      5-min Rain = 0
KAM2 090046Z 24020KT 16/03 A297 RMK A01 T01560025  RH  041%=      5-min Rain = 0
KAM2 090047Z 24022G28KT 16/02 A297 RMK A01 T01550024  RH  041%=      5-min Rain = 0
KAM2 090048Z 24026KT 16/02 A2969 RMK A01 T01550024  RH  041%=      5-min Rain = 0
KAM2 090049Z 25020KT 16/02 A297 RMK A01 T01560024  RH  041%=      5-min Rain = 0
KAM2 090050Z 24023G28KT 16/03 A297 RMK A01 T01560025  RH  041%=      5-min Rain = 0
KAM2 090051Z 24020G25KT 16/03 A297 RMK A01 T01560025  RH  041%=      5-min Rain = 0
KAM2 090052Z 24019G24KT 16/03 A297 RMK A01 T01550025  RH  041%=      5-min Rain = 0
KAM2 090053Z 24020G25KT 15/03 A297 RMK A01 T01540025  RH  042%=      5-min Rain = 0
KAM2 090054Z 25024G30KT 15/02 A297 RMK A01 T01540024  RH  042%=      5-min Rain = 0
KAM2 090055Z 25022G27KT 15/02 A297 RMK A01 T01540024  RH  042%=      5-min Rain = 0
KAM2 090056Z 25023KT 16/02 A297 RMK A01 T01550024  RH  041%=      5-min Rain = 0
KAM2 090057Z 25020G25KT 16/02 A297 RMK A01 T01550024  RH  041%=      5-min Rain = 0
KAM2 090058Z 25020G28KT 16/02 A297 RMK A01 T01550024  RH  041%=      5-min Rain = 0
KAM2 090059Z 25025G33KT 15/02 A297 RMK A01 T01540024  RH  042%=      5-min Rain = 0
KAM2 090100Z 25022G27KT 16/03 A297 RMK A01 T01550025  RH  042%=      5-min Rain = 0
KAM2 090101Z 25019G27KT 15/02 A297 RMK A01 T01540024  RH  042%=      5-min Rain = 0
KAM2 090102Z 24022G27KT 15/03 A297 RMK A01 T01540025  RH  042%=      5-min Rain = 0
KAM2 090103Z 25021KT 15/03 A297 RMK A01 T01540025  RH  042%=      5-min Rain = 0
KAM2 090104Z 25023G30KT 15/03 A297 RMK A01 T01540025  RH  042%=      5-min Rain = 0
KAM2 090105Z 25025KT 15/03 A297 RMK A01 T01540025  RH  042%=      5-min Rain = 0
KAM2 090106Z 25022G28KT 15/03 A297 RMK A01 T01540025  RH  042%=      5-min Rain = 0
KAM2 090107Z 25019KT 15/03 A297 RMK A01 T01540025  RH  042%=      5-min Rain = 0
KAM2 090108Z 25020G29KT 15/03 A297 RMK A01 T01540025  RH  042%=      5-min Rain = 0
KAM2 090109Z 25014KT 15/03 A297 RMK A01 T01530025  RH  042%=      5-min Rain = 0
KAM2 090110Z 25015G20KT 15/03 A297 RMK A01 T01520025  RH  042%=      5-min Rain = 0
KAM2 090111Z 25017G23KT 15/03 A297 RMK A01 T01510025  RH  043%=      5-min Rain = 0
KAM2 090112Z 25020KT 15/03 A297 RMK A01 T01510025  RH  043%=      5-min Rain = 0
KAM2 090113Z 25015KT 15/03 A297 RMK A01 T01500025  RH  043%=      5-min Rain = 0
KAM2 090114Z 25015G21KT 15/03 A2971 RMK A01 T01500025  RH  043%=      5-min Rain = 0
KAM2 090115Z 25016G21KT 15/03 A2971 RMK A01 T01490025  RH  043%=      5-min Rain = 0
KAM2 090116Z 25021G27KT 15/03 A2971 RMK A01 T01490025  RH  043%=      5-min Rain = 0
KAM2 090117Z 25018KT 15/03 A2971 RMK A01 T01490026  RH  043%=      5-min Rain = 0
KAM2 090118Z 25019G24KT 15/03 A2971 RMK A01 T01500026  RH  043%=      5-min Rain = 0
KAM2 090119Z 25020KT 15/03 A2971 RMK A01 T01500026  RH  043%=      5-min Rain = 0
KAM2 090120Z 25016KT 15/03 A2971 RMK A01 T01500026  RH  043%=      5-min Rain = 0
KAM2 090121Z 25017G23KT 15/03 A2971 RMK A01 T01490026  RH  043%=      5-min Rain = 0
KAM2 090122Z 25019G25KT 15/03 A2971 RMK A01 T01480026  RH  044%=      5-min Rain = 0
KAM2 090123Z 25017KT 15/03 A2971 RMK A01 T01490026  RH  044%=      5-min Rain = 0
KAM2 090124Z 25018G24KT 15/03 A2971 RMK A01 T01490027  RH  044%=      5-min Rain = 0
KAM2 090125Z 24019KT 15/03 A2971 RMK A01 T01490027  RH  044%=      5-min Rain = 0
KAM2 090126Z 24017KT 15/03 A2971 RMK A01 T01490027  RH  044%=      5-min Rain = 0
KAM2 090127Z 24017G24KT 15/03 A2971 RMK A01 T01480027  RH  044%=      5-min Rain = 0
KAM2 090128Z 24017G22KT 15/03 A2971 RMK A01 T01470027  RH  044%=      5-min Rain = 0
KAM2 090129Z 24019KT 15/03 A2971 RMK A01 T01470027  RH  044%=      5-min Rain = 0
KAM2 090130Z 25017KT 15/03 A2971 RMK A01 T01470027  RH  044%=      5-min Rain = 0
KAM2 090131Z 25016KT 15/03 A2971 RMK A01 T01470027  RH  044%=      5-min Rain = 0
KAM2 090132Z 24016G23KT 15/03 A2971 RMK A01 T01460027  RH  044%=      5-min Rain = 0
KAM2 090133Z 25017G23KT 15/03 A2971 RMK A01 T01460027  RH  045%=      5-min Rain = 0
KAM2 090134Z 24015G20KT 15/03 A2971 RMK A01 T01460027  RH  045%=      5-min Rain = 0
KAM2 090135Z 25015G20KT 15/03 A2971 RMK A01 T01460027  RH  045%=      5-min Rain = 0
KAM2 090136Z 24016G22KT 15/03 A2971 RMK A01 T01460027  RH  045%=      5-min Rain = 0
KAM2 090137Z 24021KT 15/03 A2971 RMK A01 T01450027  RH  045%=      5-min Rain = 0
KAM2 090138Z 24018G24KT 15/03 A2971 RMK A01 T01460027  RH  045%=      5-min Rain = 0
KAM2 090139Z 24017KT 15/03 A2971 RMK A01 T01460027  RH  045%=      5-min Rain = 0
KAM2 090140Z 24015G23KT 15/03 A2971 RMK A01 T01460027  RH  045%=      5-min Rain = 0
KAM2 090141Z 24017G23KT 15/03 A2971 RMK A01 T01450027  RH  045%=      5-min Rain = 0
KAM2 090142Z 24015KT 15/03 A2971 RMK A01 T01450027  RH  045%=      5-min Rain = 0
KAM2 090143Z 25017G23KT 14/03 A2971 RMK A01 T01440027  RH  045%=      5-min Rain = 0
KAM2 090144Z 25018KT 14/03 A2971 RMK A01 T01440027  RH  045%=      5-min Rain = 0
KAM2 090145Z 25014G21KT 14/03 A2971 RMK A01 T01440027  RH  045%=      5-min Rain = 0
KAM2 090146Z 24015G21KT 14/03 A2971 RMK A01 T01430026  RH  045%=      5-min Rain = 0
KAM2 090147Z 24020KT 14/03 A297 RMK A01 T01430026  RH  045%=      5-min Rain = 0
KAM2 090148Z 24019G26KT 14/03 A2971 RMK A01 T01430026  RH  045%=      5-min Rain = 0
KAM2 090149Z 24017G23KT 14/03 A2971 RMK A01 T01430026  RH  045%=      5-min Rain = 0
KAM2 090150Z 24017G22KT 14/03 A2971 RMK A01 T01430026  RH  045%=      5-min Rain = 0
KAM2 090151Z 24018G23KT 14/03 A2971 RMK A01 T01430026  RH  045%=      5-min Rain = 0
KAM2 090152Z 24019G24KT 14/03 A2971 RMK A01 T01420026  RH  045%=      5-min Rain = 0
KAM2 090153Z 24019KT 14/03 A297 RMK A01 T01420026  RH  045%=      5-min Rain = 0
KAM2 090154Z 24018G23KT 14/03 A297 RMK A01 T01420025  RH  045%=      5-min Rain = 0
KAM2 090155Z 24019G28KT 14/03 A2971 RMK A01 T01420026  RH  045%=      5-min Rain = 0
KAM2 090156Z 24018KT 14/03 A2971 RMK A01 T01420025  RH  045%=      5-min Rain = 0
KAM2 090157Z 24018KT 14/03 A2971 RMK A01 T01420025  RH  045%=      5-min Rain = 0
KAM2 090158Z 24017G24KT 14/03 A2971 RMK A01 T01420026  RH  045%=      5-min Rain = 0
KAM2 090159Z 24018G24KT 14/03 A2971 RMK A01 T01410025  RH  046%=      5-min Rain = 0
KAM2 090200Z 24016KT 14/03 A2971 RMK A01 T01410025  RH  046%=      5-min Rain = 0
KAM2 090201Z 24018G23KT 14/03 A2971 RMK A01 T01410025  RH  046%=      5-min Rain = 0
KAM2 090202Z 24019G25KT 14/03 A2971 RMK A01 T01400025  RH  046%=      5-min Rain = 0
KAM2 090203Z 24017KT 14/02 A2971 RMK A01 T01400024  RH  046%=      5-min Rain = 0
KAM2 090204Z 25018G24KT 14/03 A2971 RMK A01 T01400025  RH  046%=      5-min Rain = 0
KAM2 090205Z 25022KT 14/03 A2971 RMK A01 T01410025  RH  046%=      5-min Rain = 0
KAM2 090206Z 24016G21KT 14/03 A2971 RMK A01 T01410025  RH  045%=      5-min Rain = 0
KAM2 090207Z 24021KT 14/02 A2971 RMK A01 T01400024  RH  045%=      5-min Rain = 0
KAM2 090208Z 24017G23KT 14/02 A2971 RMK A01 T01410024  RH  045%=      5-min Rain = 0
KAM2 090209Z 25019G24KT 14/02 A2971 RMK A01 T01400024  RH  045%=      5-min Rain = 0
KAM2 090210Z 25018G23KT 14/02 A2971 RMK A01 T01400024  RH  046%=      5-min Rain = 0
KAM2 090211Z 25019G24KT 14/02 A2971 RMK A01 T01400024  RH  046%=      5-min Rain = 0
KAM2 090212Z 25017KT 14/02 A2971 RMK A01 T01400024  RH  046%=      5-min Rain = 0
KAM2 090213Z 25017G23KT 14/02 A2971 RMK A01 T01400024  RH  046%=      5-min Rain = 0
KAM2 090214Z 25018KT 14/02 A2971 RMK A01 T01390024  RH  046%=      5-min Rain = 0
KAM2 090215Z 24018G23KT 14/02 A297 RMK A01 T01390024  RH  046%=      5-min Rain = 0
KAM2 090216Z 25016KT 14/02 A297 RMK A01 T01380024  RH  046%=      5-min Rain = 0
KAM2 090217Z 25014KT 14/02 A297 RMK A01 T01380023  RH  046%=      5-min Rain = 0
KAM2 090218Z 24017KT 14/02 A297 RMK A01 T01370023  RH  046%=      5-min Rain = 0
KAM2 090219Z 25017KT 14/02 A2971 RMK A01 T01370023  RH  046%=      5-min Rain = 0
KAM2 090220Z 24014G19KT 14/02 A2971 RMK A01 T01370023  RH  046%=      5-min Rain = 0
KAM2 090221Z 25015KT 14/02 A2971 RMK A01 T01360023  RH  046%=      5-min Rain = 0
KAM2 090222Z 25016KT 14/02 A2971 RMK A01 T01360023  RH  046%=      5-min Rain = 0
KAM2 090223Z 25018KT 14/02 A2971 RMK A01 T01360023  RH  046%=      5-min Rain = 0
KAM2 090224Z 24014G20KT 14/02 A2971 RMK A01 T01360023  RH  046%=      5-min Rain = 0
KAM2 090225Z 24018G23KT 14/02 A2971 RMK A01 T01360023  RH  046%=      5-min Rain = 0
KAM2 090226Z 24016KT 14/02 A2971 RMK A01 T01360023  RH  046%=      5-min Rain = 0
KAM2 090227Z 24015KT 14/02 A2971 RMK A01 T01360023  RH  046%=      5-min Rain = 0
KAM2 090228Z 24014KT 14/02 A2971 RMK A01 T01350023  RH  046%=      5-min Rain = 0
KAM2 090229Z 24013G19KT 14/02 A2971 RMK A01 T01350023  RH  047%=      5-min Rain = 0
KAM2 090230Z 24014KT 13/02 A2971 RMK A01 T01340023  RH  047%=      5-min Rain = 0
KAM2 090231Z 24015G25KT 13/02 A2971 RMK A01 T01340023  RH  047%=      5-min Rain = 0
KAM2 090232Z 24017KT 13/02 A2971 RMK A01 T01330023  RH  047%=      5-min Rain = 0
KAM2 090233Z 24014G20KT 13/02 A2971 RMK A01 T01340023  RH  047%=      5-min Rain = 0
KAM2 090234Z 24016G23KT 13/02 A2971 RMK A01 T01340023  RH  047%=      5-min Rain = 0
KAM2 090235Z 24015KT 13/02 A2971 RMK A01 T01330023  RH  047%=      5-min Rain = 0
KAM2 090236Z 24016KT 13/02 A2971 RMK A01 T01330023  RH  047%=      5-min Rain = 0
KAM2 090237Z 24015KT 13/02 A2971 RMK A01 T01330023  RH  047%=      5-min Rain = 0
KAM2 090238Z 24015G20KT 13/02 A2971 RMK A01 T01330022  RH  047%=      5-min Rain = 0
KAM2 090239Z 24018KT 13/02 A2971 RMK A01 T01320022  RH  047%=      5-min Rain = 0
KAM2 090240Z 25017G22KT 13/02 A2971 RMK A01 T01320022  RH  047%=      5-min Rain = 0
KAM2 090241Z 24014G20KT 13/02 A2971 RMK A01 T01320022  RH  047%=      5-min Rain = 0
KAM2 090242Z 24012G18KT 13/02 A2971 RMK A01 T01320022  RH  047%=      5-min Rain = 0
KAM2 090243Z 24016KT 13/02 A2971 RMK A01 T01310022  RH  048%=      5-min Rain = 0
KAM2 090244Z 24016KT 13/02 A2971 RMK A01 T01310022  RH  048%=      5-min Rain = 0
KAM2 090245Z 25016KT 13/02 A2972 RMK A01 T01310022  RH  048%=      5-min Rain = 0
KAM2 090246Z 24014KT 13/02 A2972 RMK A01 T01310022  RH  048%=      5-min Rain = 0
KAM2 090247Z 24014KT 13/02 A2972 RMK A01 T01310022  RH  048%=      5-min Rain = 0
KAM2 090248Z 25018KT 13/02 A2972 RMK A01 T01300022  RH  048%=      5-min Rain = 0
KAM2 090249Z 25014KT 13/02 A2972 RMK A01 T01300022  RH  048%=      5-min Rain = 0
KAM2 090250Z 25014KT 13/02 A2972 RMK A01 T01300022  RH  048%=      5-min Rain = 0
KAM2 090251Z 25016KT 13/02 A2972 RMK A01 T01300022  RH  048%=      5-min Rain = 0
KAM2 090252Z 25018KT 13/02 A2972 RMK A01 T01300022  RH  048%=      5-min Rain = 0
KAM2 090253Z 25017G22KT 13/02 A2972 RMK A01 T01300022  RH  048%=      5-min Rain = 0
KAM2 090254Z 25014G19KT 13/02 A2972 RMK A01 T01310022  RH  048%=      5-min Rain = 0
KAM2 090255Z 24014KT 13/02 A2972 RMK A01 T01300022  RH  048%=      5-min Rain = 0
KAM2 090256Z 25015KT 13/02 A2972 RMK A01 T01290022  RH  048%=      5-min Rain = 0
KAM2 090257Z 25015G20KT 13/02 A2972 RMK A01 T01290022  RH  048%=      5-min Rain = 0
KAM2 090258Z 25018KT 13/02 A2972 RMK A01 T01290021  RH  048%=      5-min Rain = 0
KAM2 090259Z 24016KT 13/02 A2971 RMK A01 T01290021  RH  048%=      5-min Rain = 0
KAM2 090300Z 25016G21KT 13/02 A2971 RMK A01 T01290021  RH  048%=      5-min Rain = 0
KAM2 090301Z 25017KT 13/02 A2971 RMK A01 T01290021  RH  048%=      5-min Rain = 0
KAM2 090302Z 24015KT 13/02 A2971 RMK A01 T01300021  RH  048%=      5-min Rain = 0
KAM2 090303Z 24016KT 13/02 A2971 RMK A01 T01300021  RH  047%=      5-min Rain = 0
KAM2 090304Z 24014KT 13/02 A2971 RMK A01 T01300021  RH  048%=      5-min Rain = 0
KAM2 090305Z 24017KT 13/02 A2971 RMK A01 T01290021  RH  048%=      5-min Rain = 0
KAM2 090306Z 25017KT 13/02 A2971 RMK A01 T01290021  RH  048%=      5-min Rain = 0
KAM2 090307Z 24016G21KT 13/02 A2971 RMK A01 T01300021  RH  048%=      5-min Rain = 0
KAM2 090308Z 24018G23KT 13/02 A2971 RMK A01 T01290021  RH  048%=      5-min Rain = 0
KAM2 090309Z 24017G22KT 13/02 A2971 RMK A01 T01300021  RH  048%=      5-min Rain = 0
KAM2 090310Z 24015KT 13/02 A2971 RMK A01 T01290021  RH  048%=      5-min Rain = 0
KAM2 090311Z 24015KT 13/02 A2971 RMK A01 T01280020  RH  048%=      5-min Rain = 0
KAM2 090312Z 24016G21KT 13/02 A2971 RMK A01 T01280021  RH  048%=      5-min Rain = 0
KAM2 090313Z 24014G19KT 13/02 A2971 RMK A01 T01280021  RH  048%=      5-min Rain = 0
KAM2 090314Z 24015KT 13/02 A2972 RMK A01 T01280021  RH  048%=      5-min Rain = 0
KAM2 090315Z 24014G19KT 13/02 A2972 RMK A01 T01270020  RH  048%=      5-min Rain = 0
KAM2 090316Z 24014KT 13/02 A2971 RMK A01 T01280021  RH  048%=      5-min Rain = 0
KAM2 090317Z 24013KT 13/02 A2971 RMK A01 T01270020  RH  048%=      5-min Rain = 0
KAM2 090318Z 24013KT 13/02 A2971 RMK A01 T01270021  RH  048%=      5-min Rain = 0
KAM2 090319Z 24015KT 13/02 A2971 RMK A01 T01270020  RH  048%=      5-min Rain = 0
KAM2 090320Z 24015KT 13/02 A2971 RMK A01 T01270020  RH  048%=      5-min Rain = 0
KAM2 090321Z 24014G19KT 13/02 A2971 RMK A01 T01270020  RH  048%=      5-min Rain = 0
KAM2 090322Z 24016KT 13/02 A2972 RMK A01 T01270020  RH  048%=      5-min Rain = 0
KAM2 090323Z 24013G18KT 13/02 A2972 RMK A01 T01270021  RH  048%=      5-min Rain = 0
KAM2 090324Z 24016KT 13/02 A2972 RMK A01 T01270021  RH  048%=      5-min Rain = 0
KAM2 090325Z 24014G19KT 13/02 A2972 RMK A01 T01270021  RH  048%=      5-min Rain = 0
KAM2 090326Z 24013KT 13/02 A2972 RMK A01 T01260021  RH  049%=      5-min Rain = 0
KAM2 090327Z 24013KT 13/02 A2972 RMK A01 T01260021  RH  049%=      5-min Rain = 0
KAM2 090328Z 24015KT 13/02 A2972 RMK A01 T01250020  RH  049%=      5-min Rain = 0
KAM2 090329Z 24014KT 13/02 A2971 RMK A01 T01250021  RH  049%=      5-min Rain = 0
KAM2 090330Z 25012G17KT 13/02 A2972 RMK A01 T01250021  RH  049%=      5-min Rain = 0
KAM2 090331Z 25014KT 13/02 A2972 RMK A01 T01250021  RH  049%=      5-min Rain = 0
KAM2 090332Z 24013KT 12/02 A2972 RMK A01 T01240021  RH  049%=      5-min Rain = 0
KAM2 090333Z 25014KT 12/02 A2972 RMK A01 T01240021  RH  050%=      5-min Rain = 0
KAM2 090334Z 24015KT 12/02 A2972 RMK A01 T01230021  RH  050%=      5-min Rain = 0
KAM2 090335Z 25015KT 12/02 A2972 RMK A01 T01230021  RH  050%=      5-min Rain = 0
KAM2 090336Z 25015KT 12/02 A2972 RMK A01 T01230021  RH  050%=      5-min Rain = 0
KAM2 090337Z 25013KT 12/02 A2972 RMK A01 T01240022  RH  050%=      5-min Rain = 0
KAM2 090338Z 24015G20KT 12/02 A2972 RMK A01 T01240022  RH  050%=      5-min Rain = 0
KAM2 090339Z 24015G20KT 12/02 A2972 RMK A01 T01230022  RH  050%=      5-min Rain = 0
KAM2 090340Z 25015KT 12/02 A2972 RMK A01 T01230022  RH  050%=      5-min Rain = 0
KAM2 090341Z 24016G21KT 12/02 A2972 RMK A01 T01230022  RH  050%=      5-min Rain = 0
KAM2 090342Z 24016G21KT 12/02 A2972 RMK A01 T01230022  RH  050%=      5-min Rain = 0
KAM2 090343Z 24016KT 12/02 A2973 RMK A01 T01240022  RH  050%=      5-min Rain = 0
KAM2 090344Z 24015G20KT 12/02 A2973 RMK A01 T01240022  RH  050%=      5-min Rain = 0
KAM2 090345Z 24013G18KT 12/02 A2973 RMK A01 T01240022  RH  050%=      5-min Rain = 0
KAM2 090346Z 24014KT 12/02 A2972 RMK A01 T01230022  RH  050%=      5-min Rain = 0
KAM2 090347Z 24016KT 12/02 A2972 RMK A01 T01230023  RH  050%=      5-min Rain = 0
KAM2 090348Z 24014KT 12/02 A2972 RMK A01 T01220022  RH  050%=      5-min Rain = 0
KAM2 090349Z 24014G19KT 12/02 A2972 RMK A01 T01220022  RH  050%=      5-min Rain = 0
KAM2 090350Z 24016KT 12/02 A2972 RMK A01 T01230023  RH  050%=      5-min Rain = 0
KAM2 090351Z 24014G19KT 12/02 A2972 RMK A01 T01230023  RH  050%=      5-min Rain = 0
KAM2 090352Z 24016G21KT 12/02 A2972 RMK A01 T01240023  RH  050%=      5-min Rain = 0
KAM2 090353Z 24013KT 12/02 A2972 RMK A01 T01240023  RH  050%=      5-min Rain = 0
KAM2 090354Z 25012KT 12/02 A2972 RMK A01 T01240024  RH  050%=      5-min Rain = 0
KAM2 090355Z 25012KT 12/02 A2972 RMK A01 T01230023  RH  051%=      5-min Rain = 0
KAM2 090356Z 24014G20KT 12/02 A2972 RMK A01 T01220023  RH  051%=      5-min Rain = 0
KAM2 090357Z 24014KT 12/02 A2972 RMK A01 T01220023  RH  051%=      5-min Rain = 0
KAM2 090358Z 25014G20KT 12/02 A2972 RMK A01 T01230023  RH  051%=      5-min Rain = 0
KAM2 090359Z 25012KT 12/02 A2972 RMK A01 T01230024  RH  051%=      5-min Rain = 0
KAM2 090400Z 25014KT 12/02 A2972 RMK A01 T01240024  RH  051%=      5-min Rain = 0
KAM2 090401Z 25013KT 12/02 A2972 RMK A01 T01240024  RH  051%=      5-min Rain = 0
KAM2 090402Z 25015KT 12/02 A2972 RMK A01 T01240024  RH  050%=      5-min Rain = 0
KAM2 090403Z 25014KT 12/02 A2972 RMK A01 T01240024  RH  051%=      5-min Rain = 0
KAM2 090404Z 25013KT 12/02 A2972 RMK A01 T01240024  RH  051%=      5-min Rain = 0
KAM2 090405Z 25014KT 12/02 A2972 RMK A01 T01240024  RH  051%=      5-min Rain = 0
KAM2 090406Z 25013G19KT 12/02 A2972 RMK A01 T01240024  RH  051%=      5-min Rain = 0
KAM2 090407Z 25013G19KT 12/02 A2972 RMK A01 T01240024  RH  051%=      5-min Rain = 0
KAM2 090408Z 25016KT 12/02 A2972 RMK A01 T01230024  RH  051%=      5-min Rain = 0
KAM2 090409Z 25016KT 12/02 A2972 RMK A01 T01230024  RH  051%=      5-min Rain = 0
KAM2 090410Z 26013KT 12/03 A2972 RMK A01 T01240025  RH  051%=      5-min Rain = 0
KAM2 090411Z 25016KT 12/02 A2972 RMK A01 T01230024  RH  051%=      5-min Rain = 0
KAM2 090412Z 25015KT 12/02 A2972 RMK A01 T01240024  RH  051%=      5-min Rain = 0
KAM2 090413Z 25016KT 12/03 A2972 RMK A01 T01240025  RH  051%=      5-min Rain = 0
KAM2 090414Z 25017G22KT 12/03 A2972 RMK A01 T01240025  RH  051%=      5-min Rain = 0
KAM2 090415Z 25015G20KT 12/02 A2972 RMK A01 T01240024  RH  051%=      5-min Rain = 0
KAM2 090416Z 25017KT 12/03 A2972 RMK A01 T01240025  RH  051%=      5-min Rain = 0
KAM2 090417Z 25017KT 12/02 A2972 RMK A01 T01230024  RH  051%=      5-min Rain = 0
KAM2 090418Z 25019G25KT 12/02 A2972 RMK A01 T01230024  RH  051%=      5-min Rain = 0
KAM2 090419Z 25018KT 12/02 A2972 RMK A01 T01230024  RH  051%=      5-min Rain = 0
KAM2 090420Z 25019KT 12/02 A2972 RMK A01 T01230024  RH  051%=      5-min Rain = 0
KAM2 090421Z 25015G20KT 12/02 A2972 RMK A01 T01230024  RH  051%=      5-min Rain = 0
KAM2 090422Z 25016G22KT 12/03 A2972 RMK A01 T01230025  RH  051%=      5-min Rain = 0
KAM2 090423Z 25016KT 12/02 A2971 RMK A01 T01230024  RH  051%=      5-min Rain = 0
KAM2 090424Z 25019G24KT 12/03 A2971 RMK A01 T01220025  RH  051%=      5-min Rain = 0
KAM2 090425Z 25015G21KT 12/02 A2971 RMK A01 T01230024  RH  051%=      5-min Rain = 0
KAM2 090426Z 25016KT 12/03 A2972 RMK A01 T01230025  RH  051%=      5-min Rain = 0
KAM2 090427Z 25016G21KT 12/03 A2972 RMK A01 T01220025  RH  051%=      5-min Rain = 0
KAM2 090428Z 25016KT 12/03 A2972 RMK A01 T01220025  RH  051%=      5-min Rain = 0
KAM2 090429Z 25013G18KT 12/03 A2972 RMK A01 T01220025  RH  051%=      5-min Rain = 0
KAM2 090430Z 25017KT 12/02 A2972 RMK A01 T01210024  RH  051%=      5-min Rain = 0
KAM2 090431Z 25014KT 12/02 A2972 RMK A01 T01210024  RH  052%=      5-min Rain = 0
KAM2 090432Z 25014G19KT 12/03 A2972 RMK A01 T01220025  RH  052%=      5-min Rain = 0
KAM2 090433Z 25013G18KT 12/03 A2972 RMK A01 T01210025  RH  052%=      5-min Rain = 0
KAM2 090434Z 25015KT 12/03 A2972 RMK A01 T01210025  RH  052%=      5-min Rain = 0
KAM2 090435Z 25016G21KT 12/03 A2972 RMK A01 T01210025  RH  052%=      5-min Rain = 0
KAM2 090436Z 25014KT 12/03 A2972 RMK A01 T01210025  RH  052%=      5-min Rain = 0
KAM2 090437Z 25016KT 12/03 A2972 RMK A01 T01210025  RH  052%=      5-min Rain = 0
KAM2 090438Z 25017KT 12/03 A2972 RMK A01 T01210025  RH  052%=      5-min Rain = 0
KAM2 090439Z 25014G19KT 12/03 A2972 RMK A01 T01210025  RH  052%=      5-min Rain = 0
KAM2 090440Z 25019G24KT 12/03 A2972 RMK A01 T01210025  RH  052%=      5-min Rain = 0
KAM2 090441Z 25014G20KT 12/03 A2972 RMK A01 T01220025  RH  052%=      5-min Rain = 0
KAM2 090442Z 25017KT 12/03 A2972 RMK A01 T01220025  RH  052%=      5-min Rain = 0
KAM2 090443Z 25017G23KT 12/03 A2972 RMK A01 T01220025  RH  052%=      5-min Rain = 0
KAM2 090444Z 25017KT 12/03 A2972 RMK A01 T01220025  RH  052%=      5-min Rain = 0
KAM2 090445Z 25016G21KT 12/03 A2972 RMK A01 T01220025  RH  052%=      5-min Rain = 0
KAM2 090446Z 25015KT 12/03 A2972 RMK A01 T01220025  RH  052%=      5-min Rain = 0
KAM2 090447Z 25017G22KT 12/03 A2972 RMK A01 T01220026  RH  052%=      5-min Rain = 0
KAM2 090448Z 24016KT 12/03 A2972 RMK A01 T01220026  RH  052%=      5-min Rain = 0
KAM2 090449Z 25018KT 12/03 A2972 RMK A01 T01220026  RH  052%=      5-min Rain = 0
KAM2 090450Z 25019KT 12/03 A2972 RMK A01 T01220026  RH  052%=      5-min Rain = 0
KAM2 090451Z 25018G23KT 12/03 A2972 RMK A01 T01230026  RH  052%=      5-min Rain = 0
KAM2 090452Z 25016KT 12/03 A2972 RMK A01 T01230026  RH  051%=      5-min Rain = 0
KAM2 090453Z 24018G23KT 12/03 A2972 RMK A01 T01230026  RH  051%=      5-min Rain = 0
KAM2 090454Z 25014G21KT 12/03 A2972 RMK A01 T01230026  RH  051%=      5-min Rain = 0
KAM2 090455Z 25015KT 12/03 A2972 RMK A01 T01240026  RH  051%=      5-min Rain = 0
KAM2 090456Z 25016G22KT 12/03 A2972 RMK A01 T01230026  RH  051%=      5-min Rain = 0
KAM2 090457Z 25016G21KT 12/03 A2972 RMK A01 T01230026  RH  052%=      5-min Rain = 0
KAM2 090458Z 25014KT 12/03 A2972 RMK A01 T01230026  RH  052%=      5-min Rain = 0
KAM2 090459Z 25013KT 12/03 A2972 RMK A01 T01220026  RH  052%=      5-min Rain = 0
KAM2 090500Z 26014KT 12/03 A2972 RMK A01 T01220026  RH  052%=      5-min Rain = 0
KAM2 090501Z 25013KT 12/03 A2972 RMK A01 T01210026  RH  052%=      5-min Rain = 0
KAM2 090502Z 25012KT 12/03 A2972 RMK A01 T01200026  RH  052%=      5-min Rain = 0
KAM2 090503Z 26012KT 12/03 A2972 RMK A01 T01200026  RH  053%=      5-min Rain = 0
KAM2 090504Z 25013KT 12/03 A2972 RMK A01 T01190026  RH  053%=      5-min Rain = 0
KAM2 090505Z 25016KT 12/03 A2972 RMK A01 T01190026  RH  053%=      5-min Rain = 0
KAM2 090506Z 25016KT 12/03 A2972 RMK A01 T01190026  RH  053%=      5-min Rain = 0
KAM2 090507Z 25011G17KT 12/03 A2972 RMK A01 T01200026  RH  053%=      5-min Rain = 0
KAM2 090508Z 25013KT 12/03 A2972 RMK A01 T01190026  RH  053%=      5-min Rain = 0
KAM2 090509Z 25013KT 12/03 A2972 RMK A01 T01190026  RH  053%=      5-min Rain = 0
KAM2 090510Z 25015G20KT 12/03 A2972 RMK A01 T01190026  RH  053%=      5-min Rain = 0
KAM2 090511Z 25014KT 12/03 A2972 RMK A01 T01190026  RH  053%=      5-min Rain = 0
KAM2 090512Z 25013KT 12/03 A2972 RMK A01 T01190026  RH  053%=      5-min Rain = 0
KAM2 090513Z 25014KT 12/03 A2972 RMK A01 T01190026  RH  053%=      5-min Rain = 0
KAM2 090514Z 25012G18KT 12/03 A2972 RMK A01 T01190026  RH  053%=      5-min Rain = 0
KAM2 090515Z 25014KT 12/03 A2972 RMK A01 T01180026  RH  053%=      5-min Rain = 0
KAM2 090516Z 25010KT 12/03 A2972 RMK A01 T01180026  RH  053%=      5-min Rain = 0
KAM2 090517Z 25011KT 12/03 A2972 RMK A01 T01180026  RH  053%=      5-min Rain = 0
KAM2 090518Z 25011G16KT 12/03 A2972 RMK A01 T01180026  RH  053%=      5-min Rain = 0
KAM2 090519Z 25011KT 12/03 A2972 RMK A01 T01170026  RH  054%=      5-min Rain = 0
KAM2 090520Z 25011KT 12/03 A2972 RMK A01 T01170026  RH  054%=      5-min Rain = 0
KAM2 090521Z 24011KT 12/03 A2972 RMK A01 T01170026  RH  054%=      5-min Rain = 0
KAM2 090522Z 24012KT 12/03 A2972 RMK A01 T01160026  RH  054%=      5-min Rain = 0
KAM2 090523Z 24012KT 12/03 A2973 RMK A01 T01160026  RH  054%=      5-min Rain = 0
KAM2 090524Z 24011KT 12/03 A2973 RMK A01 T01160026  RH  054%=      5-min Rain = 0
KAM2 090525Z 25012G17KT 12/03 A2973 RMK A01 T01160026  RH  054%=      5-min Rain = 0
KAM2 090526Z 24011KT 12/03 A2973 RMK A01 T01160026  RH  054%=      5-min Rain = 0
KAM2 090527Z 24012KT 12/03 A2973 RMK A01 T01160026  RH  054%=      5-min Rain = 0
KAM2 090528Z 23011KT 12/03 A2973 RMK A01 T01160026  RH  054%=      5-min Rain = 0
KAM2 090529Z 24012G18KT 12/03 A2973 RMK A01 T01160026  RH  054%=      5-min Rain = 0
KAM2 090530Z 24013G18KT 12/03 A2973 RMK A01 T01160026  RH  054%=      5-min Rain = 0
KAM2 090531Z 23012KT 12/03 A2973 RMK A01 T01160025  RH  054%=      5-min Rain = 0
KAM2 090532Z 23012KT 12/03 A2973 RMK A01 T01160026  RH  054%=      5-min Rain = 0
KAM2 090533Z 23010KT 12/03 A2973 RMK A01 T01150025  RH  054%=      5-min Rain = 0
KAM2 090534Z 23011KT 11/03 A2973 RMK A01 T01140025  RH  054%=      5-min Rain = 0
KAM2 090535Z 23013KT 11/03 A2973 RMK A01 T01140025  RH  054%=      5-min Rain = 0
KAM2 090536Z 23011KT 11/02 A2973 RMK A01 T01130024  RH  054%=      5-min Rain = 0
KAM2 090537Z 23011KT 11/02 A2973 RMK A01 T01130024  RH  054%=      5-min Rain = 0
KAM2 090538Z 23012KT 11/02 A2973 RMK A01 T01130024  RH  054%=      5-min Rain = 0
KAM2 090539Z 23012KT 11/02 A2973 RMK A01 T01120024  RH  055%=      5-min Rain = 0
KAM2 090540Z 23011G16KT 11/02 A2973 RMK A01 T01120024  RH  055%=      5-min Rain = 0
KAM2 090541Z 24010KT 11/02 A2973 RMK A01 T01120024  RH  055%=      5-min Rain = 0
KAM2 090542Z 23011G16KT 11/02 A2973 RMK A01 T01120024  RH  055%=      5-min Rain = 0
KAM2 090543Z 23011KT 11/02 A2973 RMK A01 T01120024  RH  055%=      5-min Rain = 0
KAM2 090544Z 23010KT 11/02 A2973 RMK A01 T01120024  RH  055%=      5-min Rain = 0
KAM2 090545Z 23011KT 11/02 A2973 RMK A01 T01110024  RH  055%=      5-min Rain = 0
KAM2 090546Z 23011KT 11/02 A2973 RMK A01 T01110024  RH  055%=      5-min Rain = 0
KAM2 090547Z 23010KT 11/02 A2973 RMK A01 T01100024  RH  055%=      5-min Rain = 0
KAM2 090548Z 23010KT 11/02 A2973 RMK A01 T01100024  RH  055%=      5-min Rain = 0
KAM2 090549Z 23013KT 11/02 A2973 RMK A01 T01100024  RH  055%=      5-min Rain = 0
KAM2 090550Z 23012KT 11/02 A2973 RMK A01 T01100024  RH  055%=      5-min Rain = 0
KAM2 090551Z 23013KT 11/02 A2973 RMK A01 T01100024  RH  055%=      5-min Rain = 0
KAM2 090552Z 23011KT 11/02 A2973 RMK A01 T01100024  RH  055%=      5-min Rain = 0
KAM2 090553Z 22011KT 11/03 A2973 RMK A01 T01110025  RH  055%=      5-min Rain = 0
KAM2 090554Z 23010KT 11/03 A2973 RMK A01 T01110025  RH  055%=      5-min Rain = 0
KAM2 090555Z 22011KT 11/03 A2973 RMK A01 T01100025  RH  056%=      5-min Rain = 0
KAM2 090556Z 23012KT 11/03 A2973 RMK A01 T01100025  RH  056%=      5-min Rain = 0
KAM2 090557Z 23010KT 11/03 A2973 RMK A01 T01100025  RH  056%=      5-min Rain = 0
KAM2 090558Z 23011KT 11/03 A2973 RMK A01 T01100025  RH  056%=      5-min Rain = 0
KAM2 090559Z 23009KT 11/03 A2973 RMK A01 T01100025  RH  056%=      5-min Rain = 0

Page generated in 0.2207 seconds.